<?xml version="1.0" encoding="UTF-8" standalone="no" ?>
<gpx xmlns="http://www.topografix.com/GPX/1/1" xmlns:xsi="http://www.w3.org/2001/XMLSchema-instance" xsi:schemaLocation="http://www.topografix.com/GPX/1/1 http://www.topografix.com/GPX/1/1/gpx.xsd" version="1.1" creator="VisuGPX - https://www.visugpx.com">
  <metadata>
    <name>vtt circuit n°5 bonnoeuvre gr3</name>
    <desc><![CDATA[sortie en forêt avec beau temps,sol un peu gras.
bonne sortie pour ces groupes 3 et 4]]></desc>
  </metadata>
  <trk>
    <name><![CDATA[2018-03-24-15-07-03 on GPSies.com]]></name>
    <trkseg>
      <trkpt lat="47.52818" lon="-1.23624">
        <ele>47</ele>
        <time>2018-03-24T15:07:03Z</time>
      </trkpt>
      <trkpt lat="47.52826" lon="-1.23624">
        <ele>47</ele>
        <time>2018-03-24T15:08:25Z</time>
      </trkpt>
      <trkpt lat="47.52829" lon="-1.23623">
        <ele>47</ele>
        <time>2018-03-24T15:08:27Z</time>
      </trkpt>
      <trkpt lat="47.52833" lon="-1.23627">
        <ele>47</ele>
        <time>2018-03-24T15:08:30Z</time>
      </trkpt>
      <trkpt lat="47.52834" lon="-1.23631">
        <ele>47</ele>
        <time>2018-03-24T15:08:32Z</time>
      </trkpt>
      <trkpt lat="47.52835" lon="-1.23653">
        <ele>48</ele>
        <time>2018-03-24T15:08:40Z</time>
      </trkpt>
      <trkpt lat="47.52835" lon="-1.23674">
        <ele>48</ele>
        <time>2018-03-24T15:08:46Z</time>
      </trkpt>
      <trkpt lat="47.52835" lon="-1.23686">
        <ele>48</ele>
        <time>2018-03-24T15:08:49Z</time>
      </trkpt>
      <trkpt lat="47.52834" lon="-1.23719">
        <ele>49</ele>
        <time>2018-03-24T15:08:57Z</time>
      </trkpt>
      <trkpt lat="47.52833" lon="-1.23733">
        <ele>49</ele>
        <time>2018-03-24T15:09:00Z</time>
      </trkpt>
      <trkpt lat="47.52832" lon="-1.23763">
        <ele>50</ele>
        <time>2018-03-24T15:09:06Z</time>
      </trkpt>
      <trkpt lat="47.5283" lon="-1.238">
        <ele>50</ele>
        <time>2018-03-24T15:09:13Z</time>
      </trkpt>
      <trkpt lat="47.52829" lon="-1.23814">
        <ele>50</ele>
        <time>2018-03-24T15:09:16Z</time>
      </trkpt>
      <trkpt lat="47.52821" lon="-1.23843">
        <ele>51</ele>
        <time>2018-03-24T15:09:23Z</time>
      </trkpt>
      <trkpt lat="47.52808" lon="-1.23853">
        <ele>51</ele>
        <time>2018-03-24T15:09:28Z</time>
      </trkpt>
      <trkpt lat="47.52785" lon="-1.23859">
        <ele>51</ele>
        <time>2018-03-24T15:09:37Z</time>
      </trkpt>
      <trkpt lat="47.52771" lon="-1.23869">
        <ele>50</ele>
        <time>2018-03-24T15:09:50Z</time>
      </trkpt>
      <trkpt lat="47.52771" lon="-1.23877">
        <ele>50</ele>
        <time>2018-03-24T15:09:52Z</time>
      </trkpt>
      <trkpt lat="47.52767" lon="-1.23907">
        <ele>50</ele>
        <time>2018-03-24T15:10:00Z</time>
      </trkpt>
      <trkpt lat="47.52758" lon="-1.23939">
        <ele>50</ele>
        <time>2018-03-24T15:10:07Z</time>
      </trkpt>
      <trkpt lat="47.52753" lon="-1.23964">
        <ele>49</ele>
        <time>2018-03-24T15:10:12Z</time>
      </trkpt>
      <trkpt lat="47.5275" lon="-1.23973">
        <ele>49</ele>
        <time>2018-03-24T15:10:14Z</time>
      </trkpt>
      <trkpt lat="47.52745" lon="-1.23997">
        <ele>49</ele>
        <time>2018-03-24T15:10:18Z</time>
      </trkpt>
      <trkpt lat="47.52745" lon="-1.24016">
        <ele>49</ele>
        <time>2018-03-24T15:10:22Z</time>
      </trkpt>
      <trkpt lat="47.52745" lon="-1.2402">
        <ele>48</ele>
        <time>2018-03-24T15:10:23Z</time>
      </trkpt>
      <trkpt lat="47.52745" lon="-1.24047">
        <ele>49</ele>
        <time>2018-03-24T15:10:30Z</time>
      </trkpt>
      <trkpt lat="47.52743" lon="-1.24076">
        <ele>50</ele>
        <time>2018-03-24T15:10:37Z</time>
      </trkpt>
      <trkpt lat="47.5274" lon="-1.24103">
        <ele>50</ele>
        <time>2018-03-24T15:10:44Z</time>
      </trkpt>
      <trkpt lat="47.52734" lon="-1.24131">
        <ele>50</ele>
        <time>2018-03-24T15:10:50Z</time>
      </trkpt>
      <trkpt lat="47.52722" lon="-1.24184">
        <ele>48</ele>
        <time>2018-03-24T15:10:59Z</time>
      </trkpt>
      <trkpt lat="47.52719" lon="-1.24199">
        <ele>48</ele>
        <time>2018-03-24T15:11:01Z</time>
      </trkpt>
      <trkpt lat="47.52713" lon="-1.2423">
        <ele>47</ele>
        <time>2018-03-24T15:11:05Z</time>
      </trkpt>
      <trkpt lat="47.5271" lon="-1.24245">
        <ele>46</ele>
        <time>2018-03-24T15:11:07Z</time>
      </trkpt>
      <trkpt lat="47.52708" lon="-1.24259">
        <ele>46</ele>
        <time>2018-03-24T15:11:09Z</time>
      </trkpt>
      <trkpt lat="47.52705" lon="-1.24282">
        <ele>46</ele>
        <time>2018-03-24T15:11:13Z</time>
      </trkpt>
      <trkpt lat="47.527" lon="-1.24319">
        <ele>47</ele>
        <time>2018-03-24T15:11:20Z</time>
      </trkpt>
      <trkpt lat="47.52698" lon="-1.24335">
        <ele>47</ele>
        <time>2018-03-24T15:11:23Z</time>
      </trkpt>
      <trkpt lat="47.5269" lon="-1.2439">
        <ele>48</ele>
        <time>2018-03-24T15:11:33Z</time>
      </trkpt>
      <trkpt lat="47.52682" lon="-1.24435">
        <ele>48</ele>
        <time>2018-03-24T15:11:41Z</time>
      </trkpt>
      <trkpt lat="47.52676" lon="-1.24459">
        <ele>47</ele>
        <time>2018-03-24T15:11:47Z</time>
      </trkpt>
      <trkpt lat="47.52671" lon="-1.24479">
        <ele>46</ele>
        <time>2018-03-24T15:11:51Z</time>
      </trkpt>
      <trkpt lat="47.5267" lon="-1.24484">
        <ele>46</ele>
        <time>2018-03-24T15:11:52Z</time>
      </trkpt>
      <trkpt lat="47.52667" lon="-1.24501">
        <ele>45</ele>
        <time>2018-03-24T15:11:55Z</time>
      </trkpt>
      <trkpt lat="47.52663" lon="-1.24518">
        <ele>44</ele>
        <time>2018-03-24T15:11:58Z</time>
      </trkpt>
      <trkpt lat="47.52662" lon="-1.24524">
        <ele>44</ele>
        <time>2018-03-24T15:11:59Z</time>
      </trkpt>
      <trkpt lat="47.52661" lon="-1.24543">
        <ele>43</ele>
        <time>2018-03-24T15:12:03Z</time>
      </trkpt>
      <trkpt lat="47.52662" lon="-1.24549">
        <ele>42</ele>
        <time>2018-03-24T15:12:05Z</time>
      </trkpt>
      <trkpt lat="47.52662" lon="-1.24554">
        <ele>41</ele>
        <time>2018-03-24T15:12:36Z</time>
      </trkpt>
      <trkpt lat="47.52661" lon="-1.24562">
        <ele>41</ele>
        <time>2018-03-24T15:12:38Z</time>
      </trkpt>
      <trkpt lat="47.52662" lon="-1.24586">
        <ele>41</ele>
        <time>2018-03-24T15:12:43Z</time>
      </trkpt>
      <trkpt lat="47.52664" lon="-1.24601">
        <ele>40</ele>
        <time>2018-03-24T15:12:47Z</time>
      </trkpt>
      <trkpt lat="47.52664" lon="-1.24611">
        <ele>39</ele>
        <time>2018-03-24T15:12:49Z</time>
      </trkpt>
      <trkpt lat="47.52664" lon="-1.24615">
        <ele>38</ele>
        <time>2018-03-24T15:12:50Z</time>
      </trkpt>
      <trkpt lat="47.52663" lon="-1.24623">
        <ele>37</ele>
        <time>2018-03-24T15:12:52Z</time>
      </trkpt>
      <trkpt lat="47.52662" lon="-1.24629">
        <ele>36</ele>
        <time>2018-03-24T15:12:54Z</time>
      </trkpt>
      <trkpt lat="47.52661" lon="-1.24631">
        <ele>35</ele>
        <time>2018-03-24T15:12:55Z</time>
      </trkpt>
      <trkpt lat="47.52658" lon="-1.24636">
        <ele>33</ele>
        <time>2018-03-24T15:12:57Z</time>
      </trkpt>
      <trkpt lat="47.52655" lon="-1.24638">
        <ele>32</ele>
        <time>2018-03-24T15:12:59Z</time>
      </trkpt>
      <trkpt lat="47.52654" lon="-1.24639">
        <ele>32</ele>
        <time>2018-03-24T15:13:00Z</time>
      </trkpt>
      <trkpt lat="47.52651" lon="-1.24647">
        <ele>32</ele>
        <time>2018-03-24T15:13:04Z</time>
      </trkpt>
      <trkpt lat="47.52652" lon="-1.24654">
        <ele>31</ele>
        <time>2018-03-24T15:13:10Z</time>
      </trkpt>
      <trkpt lat="47.52653" lon="-1.24662">
        <ele>31</ele>
        <time>2018-03-24T15:13:13Z</time>
      </trkpt>
      <trkpt lat="47.52642" lon="-1.24712">
        <ele>36</ele>
        <time>2018-03-24T15:13:43Z</time>
      </trkpt>
      <trkpt lat="47.5264" lon="-1.24716">
        <ele>36</ele>
        <time>2018-03-24T15:13:45Z</time>
      </trkpt>
      <trkpt lat="47.52638" lon="-1.24722">
        <ele>36</ele>
        <time>2018-03-24T15:13:48Z</time>
      </trkpt>
      <trkpt lat="47.52633" lon="-1.24731">
        <ele>37</ele>
        <time>2018-03-24T15:13:52Z</time>
      </trkpt>
      <trkpt lat="47.52631" lon="-1.24733">
        <ele>37</ele>
        <time>2018-03-24T15:13:53Z</time>
      </trkpt>
      <trkpt lat="47.52625" lon="-1.24745">
        <ele>38</ele>
        <time>2018-03-24T15:13:58Z</time>
      </trkpt>
      <trkpt lat="47.52622" lon="-1.24759">
        <ele>38</ele>
        <time>2018-03-24T15:14:03Z</time>
      </trkpt>
      <trkpt lat="47.52621" lon="-1.24768">
        <ele>38</ele>
        <time>2018-03-24T15:14:06Z</time>
      </trkpt>
      <trkpt lat="47.52623" lon="-1.24773">
        <ele>38</ele>
        <time>2018-03-24T15:14:08Z</time>
      </trkpt>
      <trkpt lat="47.52629" lon="-1.24783">
        <ele>38</ele>
        <time>2018-03-24T15:14:13Z</time>
      </trkpt>
      <trkpt lat="47.52632" lon="-1.24788">
        <ele>38</ele>
        <time>2018-03-24T15:14:16Z</time>
      </trkpt>
      <trkpt lat="47.52632" lon="-1.24791">
        <ele>38</ele>
        <time>2018-03-24T15:14:17Z</time>
      </trkpt>
      <trkpt lat="47.52633" lon="-1.24793">
        <ele>39</ele>
        <time>2018-03-24T15:14:18Z</time>
      </trkpt>
      <trkpt lat="47.52637" lon="-1.24803">
        <ele>39</ele>
        <time>2018-03-24T15:14:22Z</time>
      </trkpt>
      <trkpt lat="47.52639" lon="-1.24805">
        <ele>39</ele>
        <time>2018-03-24T15:14:23Z</time>
      </trkpt>
      <trkpt lat="47.52643" lon="-1.24806">
        <ele>40</ele>
        <time>2018-03-24T15:14:26Z</time>
      </trkpt>
      <trkpt lat="47.52644" lon="-1.24807">
        <ele>40</ele>
        <time>2018-03-24T15:15:32Z</time>
      </trkpt>
      <trkpt lat="47.52649" lon="-1.24811">
        <ele>40</ele>
        <time>2018-03-24T15:15:36Z</time>
      </trkpt>
      <trkpt lat="47.52652" lon="-1.24813">
        <ele>40</ele>
        <time>2018-03-24T15:15:37Z</time>
      </trkpt>
      <trkpt lat="47.52674" lon="-1.24829">
        <ele>41</ele>
        <time>2018-03-24T15:15:45Z</time>
      </trkpt>
      <trkpt lat="47.52688" lon="-1.24844">
        <ele>42</ele>
        <time>2018-03-24T15:15:50Z</time>
      </trkpt>
      <trkpt lat="47.527" lon="-1.24855">
        <ele>42</ele>
        <time>2018-03-24T15:15:55Z</time>
      </trkpt>
      <trkpt lat="47.52706" lon="-1.24859">
        <ele>43</ele>
        <time>2018-03-24T15:15:57Z</time>
      </trkpt>
      <trkpt lat="47.5272" lon="-1.24869">
        <ele>43</ele>
        <time>2018-03-24T15:16:02Z</time>
      </trkpt>
      <trkpt lat="47.52736" lon="-1.24878">
        <ele>42</ele>
        <time>2018-03-24T15:16:07Z</time>
      </trkpt>
      <trkpt lat="47.52739" lon="-1.24881">
        <ele>42</ele>
        <time>2018-03-24T15:16:08Z</time>
      </trkpt>
      <trkpt lat="47.52748" lon="-1.2489">
        <ele>42</ele>
        <time>2018-03-24T15:16:11Z</time>
      </trkpt>
      <trkpt lat="47.52753" lon="-1.24899">
        <ele>41</ele>
        <time>2018-03-24T15:16:13Z</time>
      </trkpt>
      <trkpt lat="47.5276" lon="-1.24912">
        <ele>41</ele>
        <time>2018-03-24T15:16:17Z</time>
      </trkpt>
      <trkpt lat="47.52768" lon="-1.24928">
        <ele>41</ele>
        <time>2018-03-24T15:16:22Z</time>
      </trkpt>
      <trkpt lat="47.5277" lon="-1.24929">
        <ele>41</ele>
        <time>2018-03-24T15:16:23Z</time>
      </trkpt>
      <trkpt lat="47.52776" lon="-1.24929">
        <ele>41</ele>
        <time>2018-03-24T15:16:25Z</time>
      </trkpt>
      <trkpt lat="47.52788" lon="-1.2493">
        <ele>40</ele>
        <time>2018-03-24T15:16:29Z</time>
      </trkpt>
      <trkpt lat="47.52791" lon="-1.2493">
        <ele>40</ele>
        <time>2018-03-24T15:16:30Z</time>
      </trkpt>
      <trkpt lat="47.52805" lon="-1.24929">
        <ele>41</ele>
        <time>2018-03-24T15:16:36Z</time>
      </trkpt>
      <trkpt lat="47.52811" lon="-1.24926">
        <ele>41</ele>
        <time>2018-03-24T15:16:39Z</time>
      </trkpt>
      <trkpt lat="47.5282" lon="-1.24923">
        <ele>42</ele>
        <time>2018-03-24T15:16:43Z</time>
      </trkpt>
      <trkpt lat="47.52827" lon="-1.2492">
        <ele>43</ele>
        <time>2018-03-24T15:16:46Z</time>
      </trkpt>
      <trkpt lat="47.52835" lon="-1.24916">
        <ele>43</ele>
        <time>2018-03-24T15:16:50Z</time>
      </trkpt>
      <trkpt lat="47.5284" lon="-1.24912">
        <ele>44</ele>
        <time>2018-03-24T15:16:53Z</time>
      </trkpt>
      <trkpt lat="47.52845" lon="-1.24906">
        <ele>44</ele>
        <time>2018-03-24T15:16:57Z</time>
      </trkpt>
      <trkpt lat="47.52846" lon="-1.24905">
        <ele>45</ele>
        <time>2018-03-24T15:16:58Z</time>
      </trkpt>
      <trkpt lat="47.52848" lon="-1.24901">
        <ele>45</ele>
        <time>2018-03-24T15:17:00Z</time>
      </trkpt>
      <trkpt lat="47.52853" lon="-1.24898">
        <ele>45</ele>
        <time>2018-03-24T15:17:03Z</time>
      </trkpt>
      <trkpt lat="47.52859" lon="-1.24903">
        <ele>45</ele>
        <time>2018-03-24T15:17:07Z</time>
      </trkpt>
      <trkpt lat="47.52865" lon="-1.24913">
        <ele>46</ele>
        <time>2018-03-24T15:17:11Z</time>
      </trkpt>
      <trkpt lat="47.52866" lon="-1.24915">
        <ele>46</ele>
        <time>2018-03-24T15:17:12Z</time>
      </trkpt>
      <trkpt lat="47.52867" lon="-1.24918">
        <ele>46</ele>
        <time>2018-03-24T15:17:13Z</time>
      </trkpt>
      <trkpt lat="47.52878" lon="-1.24941">
        <ele>45</ele>
        <time>2018-03-24T15:17:20Z</time>
      </trkpt>
      <trkpt lat="47.52883" lon="-1.24965">
        <ele>45</ele>
        <time>2018-03-24T15:17:26Z</time>
      </trkpt>
      <trkpt lat="47.5289" lon="-1.24988">
        <ele>45</ele>
        <time>2018-03-24T15:17:32Z</time>
      </trkpt>
      <trkpt lat="47.52895" lon="-1.25011">
        <ele>45</ele>
        <time>2018-03-24T15:17:38Z</time>
      </trkpt>
      <trkpt lat="47.52901" lon="-1.25029">
        <ele>45</ele>
        <time>2018-03-24T15:17:43Z</time>
      </trkpt>
      <trkpt lat="47.52905" lon="-1.25043">
        <ele>46</ele>
        <time>2018-03-24T15:17:49Z</time>
      </trkpt>
      <trkpt lat="47.52912" lon="-1.25059">
        <ele>46</ele>
        <time>2018-03-24T15:17:56Z</time>
      </trkpt>
      <trkpt lat="47.52913" lon="-1.25061">
        <ele>46</ele>
        <time>2018-03-24T15:17:57Z</time>
      </trkpt>
      <trkpt lat="47.5292" lon="-1.25084">
        <ele>46</ele>
        <time>2018-03-24T15:18:04Z</time>
      </trkpt>
      <trkpt lat="47.52921" lon="-1.25087">
        <ele>47</ele>
        <time>2018-03-24T15:18:05Z</time>
      </trkpt>
      <trkpt lat="47.52926" lon="-1.25103">
        <ele>47</ele>
        <time>2018-03-24T15:18:10Z</time>
      </trkpt>
      <trkpt lat="47.52934" lon="-1.25124">
        <ele>48</ele>
        <time>2018-03-24T15:18:16Z</time>
      </trkpt>
      <trkpt lat="47.5294" lon="-1.25144">
        <ele>48</ele>
        <time>2018-03-24T15:18:22Z</time>
      </trkpt>
      <trkpt lat="47.52946" lon="-1.25166">
        <ele>49</ele>
        <time>2018-03-24T15:18:28Z</time>
      </trkpt>
      <trkpt lat="47.52955" lon="-1.25187">
        <ele>49</ele>
        <time>2018-03-24T15:18:34Z</time>
      </trkpt>
      <trkpt lat="47.52962" lon="-1.25211">
        <ele>50</ele>
        <time>2018-03-24T15:18:40Z</time>
      </trkpt>
      <trkpt lat="47.52965" lon="-1.25234">
        <ele>50</ele>
        <time>2018-03-24T15:18:46Z</time>
      </trkpt>
      <trkpt lat="47.52968" lon="-1.25253">
        <ele>51</ele>
        <time>2018-03-24T15:18:51Z</time>
      </trkpt>
      <trkpt lat="47.52968" lon="-1.25257">
        <ele>51</ele>
        <time>2018-03-24T15:18:52Z</time>
      </trkpt>
      <trkpt lat="47.52967" lon="-1.25275">
        <ele>51</ele>
        <time>2018-03-24T15:18:56Z</time>
      </trkpt>
      <trkpt lat="47.52961" lon="-1.25302">
        <ele>51</ele>
        <time>2018-03-24T15:19:02Z</time>
      </trkpt>
      <trkpt lat="47.52959" lon="-1.25327">
        <ele>52</ele>
        <time>2018-03-24T15:19:09Z</time>
      </trkpt>
      <trkpt lat="47.52958" lon="-1.25331">
        <ele>52</ele>
        <time>2018-03-24T15:19:10Z</time>
      </trkpt>
      <trkpt lat="47.52959" lon="-1.25352">
        <ele>52</ele>
        <time>2018-03-24T15:19:16Z</time>
      </trkpt>
      <trkpt lat="47.52959" lon="-1.25377">
        <ele>53</ele>
        <time>2018-03-24T15:19:23Z</time>
      </trkpt>
      <trkpt lat="47.52959" lon="-1.25398">
        <ele>53</ele>
        <time>2018-03-24T15:19:29Z</time>
      </trkpt>
      <trkpt lat="47.52958" lon="-1.25426">
        <ele>54</ele>
        <time>2018-03-24T15:19:37Z</time>
      </trkpt>
      <trkpt lat="47.52958" lon="-1.25429">
        <ele>54</ele>
        <time>2018-03-24T15:19:38Z</time>
      </trkpt>
      <trkpt lat="47.52958" lon="-1.25446">
        <ele>54</ele>
        <time>2018-03-24T15:20:36Z</time>
      </trkpt>
      <trkpt lat="47.52959" lon="-1.25457">
        <ele>54</ele>
        <time>2018-03-24T15:20:39Z</time>
      </trkpt>
      <trkpt lat="47.52957" lon="-1.25478">
        <ele>54</ele>
        <time>2018-03-24T15:20:44Z</time>
      </trkpt>
      <trkpt lat="47.52958" lon="-1.25502">
        <ele>54</ele>
        <time>2018-03-24T15:20:50Z</time>
      </trkpt>
      <trkpt lat="47.52958" lon="-1.25529">
        <ele>54</ele>
        <time>2018-03-24T15:20:56Z</time>
      </trkpt>
      <trkpt lat="47.52956" lon="-1.25552">
        <ele>54</ele>
        <time>2018-03-24T15:21:02Z</time>
      </trkpt>
      <trkpt lat="47.52952" lon="-1.25571">
        <ele>54</ele>
        <time>2018-03-24T15:21:07Z</time>
      </trkpt>
      <trkpt lat="47.52944" lon="-1.25591">
        <ele>53</ele>
        <time>2018-03-24T15:21:12Z</time>
      </trkpt>
      <trkpt lat="47.52939" lon="-1.25608">
        <ele>53</ele>
        <time>2018-03-24T15:21:16Z</time>
      </trkpt>
      <trkpt lat="47.52932" lon="-1.25631">
        <ele>53</ele>
        <time>2018-03-24T15:21:22Z</time>
      </trkpt>
      <trkpt lat="47.52928" lon="-1.2565">
        <ele>53</ele>
        <time>2018-03-24T15:21:27Z</time>
      </trkpt>
      <trkpt lat="47.52927" lon="-1.25669">
        <ele>53</ele>
        <time>2018-03-24T15:21:33Z</time>
      </trkpt>
      <trkpt lat="47.5293" lon="-1.25676">
        <ele>52</ele>
        <time>2018-03-24T15:21:36Z</time>
      </trkpt>
      <trkpt lat="47.52933" lon="-1.25674">
        <ele>52</ele>
        <time>2018-03-24T15:21:38Z</time>
      </trkpt>
      <trkpt lat="47.52941" lon="-1.25662">
        <ele>53</ele>
        <time>2018-03-24T15:21:44Z</time>
      </trkpt>
      <trkpt lat="47.52955" lon="-1.25652">
        <ele>53</ele>
        <time>2018-03-24T15:21:51Z</time>
      </trkpt>
      <trkpt lat="47.52967" lon="-1.25644">
        <ele>54</ele>
        <time>2018-03-24T15:21:57Z</time>
      </trkpt>
      <trkpt lat="47.52972" lon="-1.25641">
        <ele>54</ele>
        <time>2018-03-24T15:22:00Z</time>
      </trkpt>
      <trkpt lat="47.52976" lon="-1.25639">
        <ele>54</ele>
        <time>2018-03-24T15:22:02Z</time>
      </trkpt>
      <trkpt lat="47.52988" lon="-1.25631">
        <ele>55</ele>
        <time>2018-03-24T15:22:09Z</time>
      </trkpt>
      <trkpt lat="47.53" lon="-1.25625">
        <ele>55</ele>
        <time>2018-03-24T15:22:16Z</time>
      </trkpt>
      <trkpt lat="47.53012" lon="-1.25622">
        <ele>55</ele>
        <time>2018-03-24T15:22:21Z</time>
      </trkpt>
      <trkpt lat="47.53027" lon="-1.25618">
        <ele>56</ele>
        <time>2018-03-24T15:22:27Z</time>
      </trkpt>
      <trkpt lat="47.53036" lon="-1.25616">
        <ele>56</ele>
        <time>2018-03-24T15:22:30Z</time>
      </trkpt>
      <trkpt lat="47.53039" lon="-1.25616">
        <ele>56</ele>
        <time>2018-03-24T15:22:31Z</time>
      </trkpt>
      <trkpt lat="47.53046" lon="-1.25616">
        <ele>56</ele>
        <time>2018-03-24T15:22:33Z</time>
      </trkpt>
      <trkpt lat="47.53067" lon="-1.25622">
        <ele>56</ele>
        <time>2018-03-24T15:22:39Z</time>
      </trkpt>
      <trkpt lat="47.53079" lon="-1.25629">
        <ele>56</ele>
        <time>2018-03-24T15:22:44Z</time>
      </trkpt>
      <trkpt lat="47.53087" lon="-1.25632">
        <ele>56</ele>
        <time>2018-03-24T15:22:48Z</time>
      </trkpt>
      <trkpt lat="47.53092" lon="-1.2563">
        <ele>56</ele>
        <time>2018-03-24T15:22:50Z</time>
      </trkpt>
      <trkpt lat="47.5311" lon="-1.25628">
        <ele>56</ele>
        <time>2018-03-24T15:22:56Z</time>
      </trkpt>
      <trkpt lat="47.53127" lon="-1.25626">
        <ele>56</ele>
        <time>2018-03-24T15:23:02Z</time>
      </trkpt>
      <trkpt lat="47.53138" lon="-1.25622">
        <ele>56</ele>
        <time>2018-03-24T15:23:06Z</time>
      </trkpt>
      <trkpt lat="47.53151" lon="-1.25613">
        <ele>56</ele>
        <time>2018-03-24T15:23:11Z</time>
      </trkpt>
      <trkpt lat="47.53176" lon="-1.25597">
        <ele>55</ele>
        <time>2018-03-24T15:23:18Z</time>
      </trkpt>
      <trkpt lat="47.53201" lon="-1.25587">
        <ele>55</ele>
        <time>2018-03-24T15:23:25Z</time>
      </trkpt>
      <trkpt lat="47.53215" lon="-1.25587">
        <ele>55</ele>
        <time>2018-03-24T15:23:30Z</time>
      </trkpt>
      <trkpt lat="47.53216" lon="-1.25589">
        <ele>55</ele>
        <time>2018-03-24T15:23:31Z</time>
      </trkpt>
      <trkpt lat="47.53217" lon="-1.25594">
        <ele>55</ele>
        <time>2018-03-24T15:23:45Z</time>
      </trkpt>
      <trkpt lat="47.53218" lon="-1.25597">
        <ele>55</ele>
        <time>2018-03-24T15:23:46Z</time>
      </trkpt>
      <trkpt lat="47.53221" lon="-1.25619">
        <ele>55</ele>
        <time>2018-03-24T15:23:52Z</time>
      </trkpt>
      <trkpt lat="47.5322" lon="-1.25641">
        <ele>55</ele>
        <time>2018-03-24T15:23:58Z</time>
      </trkpt>
      <trkpt lat="47.53219" lon="-1.2566">
        <ele>55</ele>
        <time>2018-03-24T15:24:04Z</time>
      </trkpt>
      <trkpt lat="47.53223" lon="-1.25676">
        <ele>55</ele>
        <time>2018-03-24T15:24:10Z</time>
      </trkpt>
      <trkpt lat="47.53231" lon="-1.25689">
        <ele>55</ele>
        <time>2018-03-24T15:24:15Z</time>
      </trkpt>
      <trkpt lat="47.5324" lon="-1.25704">
        <ele>55</ele>
        <time>2018-03-24T15:24:21Z</time>
      </trkpt>
      <trkpt lat="47.53256" lon="-1.25736">
        <ele>55</ele>
        <time>2018-03-24T15:24:36Z</time>
      </trkpt>
      <trkpt lat="47.53264" lon="-1.25746">
        <ele>55</ele>
        <time>2018-03-24T15:24:40Z</time>
      </trkpt>
      <trkpt lat="47.5327" lon="-1.25752">
        <ele>55</ele>
        <time>2018-03-24T15:24:43Z</time>
      </trkpt>
      <trkpt lat="47.53276" lon="-1.25758">
        <ele>55</ele>
        <time>2018-03-24T15:24:46Z</time>
      </trkpt>
      <trkpt lat="47.53289" lon="-1.25774">
        <ele>55</ele>
        <time>2018-03-24T15:24:52Z</time>
      </trkpt>
      <trkpt lat="47.53299" lon="-1.25792">
        <ele>55</ele>
        <time>2018-03-24T15:24:58Z</time>
      </trkpt>
      <trkpt lat="47.53302" lon="-1.25794">
        <ele>55</ele>
        <time>2018-03-24T15:24:59Z</time>
      </trkpt>
      <trkpt lat="47.53334" lon="-1.25811">
        <ele>55</ele>
        <time>2018-03-24T15:25:25Z</time>
      </trkpt>
      <trkpt lat="47.53341" lon="-1.25811">
        <ele>55</ele>
        <time>2018-03-24T15:25:29Z</time>
      </trkpt>
      <trkpt lat="47.53356" lon="-1.25813">
        <ele>55</ele>
        <time>2018-03-24T15:25:38Z</time>
      </trkpt>
      <trkpt lat="47.5336" lon="-1.25811">
        <ele>54</ele>
        <time>2018-03-24T15:25:40Z</time>
      </trkpt>
      <trkpt lat="47.53376" lon="-1.25802">
        <ele>54</ele>
        <time>2018-03-24T15:25:46Z</time>
      </trkpt>
      <trkpt lat="47.53397" lon="-1.25794">
        <ele>54</ele>
        <time>2018-03-24T15:25:53Z</time>
      </trkpt>
      <trkpt lat="47.53411" lon="-1.25787">
        <ele>54</ele>
        <time>2018-03-24T15:25:59Z</time>
      </trkpt>
      <trkpt lat="47.53434" lon="-1.25776">
        <ele>55</ele>
        <time>2018-03-24T15:26:08Z</time>
      </trkpt>
      <trkpt lat="47.53451" lon="-1.25772">
        <ele>55</ele>
        <time>2018-03-24T15:26:14Z</time>
      </trkpt>
      <trkpt lat="47.53462" lon="-1.25772">
        <ele>55</ele>
        <time>2018-03-24T15:26:18Z</time>
      </trkpt>
      <trkpt lat="47.53464" lon="-1.25771">
        <ele>55</ele>
        <time>2018-03-24T15:26:19Z</time>
      </trkpt>
      <trkpt lat="47.53477" lon="-1.2577">
        <ele>55</ele>
        <time>2018-03-24T15:26:24Z</time>
      </trkpt>
      <trkpt lat="47.53479" lon="-1.25771">
        <ele>55</ele>
        <time>2018-03-24T15:26:25Z</time>
      </trkpt>
      <trkpt lat="47.53493" lon="-1.25768">
        <ele>55</ele>
        <time>2018-03-24T15:26:31Z</time>
      </trkpt>
      <trkpt lat="47.53496" lon="-1.25767">
        <ele>55</ele>
        <time>2018-03-24T15:26:32Z</time>
      </trkpt>
      <trkpt lat="47.53504" lon="-1.25764">
        <ele>55</ele>
        <time>2018-03-24T15:26:36Z</time>
      </trkpt>
      <trkpt lat="47.53517" lon="-1.2576">
        <ele>56</ele>
        <time>2018-03-24T15:26:42Z</time>
      </trkpt>
      <trkpt lat="47.53521" lon="-1.25759">
        <ele>56</ele>
        <time>2018-03-24T15:26:44Z</time>
      </trkpt>
      <trkpt lat="47.53531" lon="-1.25755">
        <ele>56</ele>
        <time>2018-03-24T15:26:48Z</time>
      </trkpt>
      <trkpt lat="47.53556" lon="-1.25755">
        <ele>57</ele>
        <time>2018-03-24T15:27:02Z</time>
      </trkpt>
      <trkpt lat="47.53559" lon="-1.25756">
        <ele>57</ele>
        <time>2018-03-24T15:27:03Z</time>
      </trkpt>
      <trkpt lat="47.53572" lon="-1.25759">
        <ele>57</ele>
        <time>2018-03-24T15:27:09Z</time>
      </trkpt>
      <trkpt lat="47.53588" lon="-1.25758">
        <ele>58</ele>
        <time>2018-03-24T15:27:17Z</time>
      </trkpt>
      <trkpt lat="47.53594" lon="-1.25754">
        <ele>58</ele>
        <time>2018-03-24T15:27:20Z</time>
      </trkpt>
      <trkpt lat="47.53598" lon="-1.2575">
        <ele>58</ele>
        <time>2018-03-24T15:27:22Z</time>
      </trkpt>
      <trkpt lat="47.53606" lon="-1.25748">
        <ele>58</ele>
        <time>2018-03-24T15:27:26Z</time>
      </trkpt>
      <trkpt lat="47.5361" lon="-1.25747">
        <ele>58</ele>
        <time>2018-03-24T15:27:28Z</time>
      </trkpt>
      <trkpt lat="47.53618" lon="-1.25746">
        <ele>58</ele>
        <time>2018-03-24T15:27:31Z</time>
      </trkpt>
      <trkpt lat="47.53633" lon="-1.25742">
        <ele>59</ele>
        <time>2018-03-24T15:27:37Z</time>
      </trkpt>
      <trkpt lat="47.53646" lon="-1.25739">
        <ele>59</ele>
        <time>2018-03-24T15:27:43Z</time>
      </trkpt>
      <trkpt lat="47.53651" lon="-1.25738">
        <ele>59</ele>
        <time>2018-03-24T15:27:45Z</time>
      </trkpt>
      <trkpt lat="47.53661" lon="-1.25737">
        <ele>59</ele>
        <time>2018-03-24T15:27:49Z</time>
      </trkpt>
      <trkpt lat="47.53673" lon="-1.25736">
        <ele>60</ele>
        <time>2018-03-24T15:27:55Z</time>
      </trkpt>
      <trkpt lat="47.53687" lon="-1.25732">
        <ele>60</ele>
        <time>2018-03-24T15:28:02Z</time>
      </trkpt>
      <trkpt lat="47.53689" lon="-1.25731">
        <ele>60</ele>
        <time>2018-03-24T15:28:03Z</time>
      </trkpt>
      <trkpt lat="47.53703" lon="-1.25728">
        <ele>61</ele>
        <time>2018-03-24T15:28:10Z</time>
      </trkpt>
      <trkpt lat="47.53716" lon="-1.25725">
        <ele>61</ele>
        <time>2018-03-24T15:28:16Z</time>
      </trkpt>
      <trkpt lat="47.53732" lon="-1.25725">
        <ele>62</ele>
        <time>2018-03-24T15:28:22Z</time>
      </trkpt>
      <trkpt lat="47.53747" lon="-1.25725">
        <ele>62</ele>
        <time>2018-03-24T15:28:28Z</time>
      </trkpt>
      <trkpt lat="47.53751" lon="-1.25726">
        <ele>62</ele>
        <time>2018-03-24T15:28:29Z</time>
      </trkpt>
      <trkpt lat="47.53766" lon="-1.25724">
        <ele>63</ele>
        <time>2018-03-24T15:28:34Z</time>
      </trkpt>
      <trkpt lat="47.53775" lon="-1.25722">
        <ele>63</ele>
        <time>2018-03-24T15:28:37Z</time>
      </trkpt>
      <trkpt lat="47.53786" lon="-1.25721">
        <ele>64</ele>
        <time>2018-03-24T15:28:41Z</time>
      </trkpt>
      <trkpt lat="47.53795" lon="-1.25721">
        <ele>64</ele>
        <time>2018-03-24T15:28:45Z</time>
      </trkpt>
      <trkpt lat="47.53797" lon="-1.25721">
        <ele>64</ele>
        <time>2018-03-24T15:28:46Z</time>
      </trkpt>
      <trkpt lat="47.53814" lon="-1.25719">
        <ele>65</ele>
        <time>2018-03-24T15:28:52Z</time>
      </trkpt>
      <trkpt lat="47.53828" lon="-1.25712">
        <ele>66</ele>
        <time>2018-03-24T15:29:09Z</time>
      </trkpt>
      <trkpt lat="47.53837" lon="-1.25698">
        <ele>66</ele>
        <time>2018-03-24T15:29:14Z</time>
      </trkpt>
      <trkpt lat="47.5385" lon="-1.25675">
        <ele>66</ele>
        <time>2018-03-24T15:29:20Z</time>
      </trkpt>
      <trkpt lat="47.53857" lon="-1.25653">
        <ele>66</ele>
        <time>2018-03-24T15:29:25Z</time>
      </trkpt>
      <trkpt lat="47.53862" lon="-1.25641">
        <ele>66</ele>
        <time>2018-03-24T15:29:28Z</time>
      </trkpt>
      <trkpt lat="47.53865" lon="-1.25634">
        <ele>66</ele>
        <time>2018-03-24T15:29:30Z</time>
      </trkpt>
      <trkpt lat="47.53874" lon="-1.25615">
        <ele>66</ele>
        <time>2018-03-24T15:29:36Z</time>
      </trkpt>
      <trkpt lat="47.53875" lon="-1.25595">
        <ele>66</ele>
        <time>2018-03-24T15:29:41Z</time>
      </trkpt>
      <trkpt lat="47.53875" lon="-1.25572">
        <ele>67</ele>
        <time>2018-03-24T15:29:46Z</time>
      </trkpt>
      <trkpt lat="47.53876" lon="-1.25556">
        <ele>67</ele>
        <time>2018-03-24T15:29:50Z</time>
      </trkpt>
      <trkpt lat="47.53876" lon="-1.25551">
        <ele>67</ele>
        <time>2018-03-24T15:29:51Z</time>
      </trkpt>
      <trkpt lat="47.53874" lon="-1.25525">
        <ele>67</ele>
        <time>2018-03-24T15:29:57Z</time>
      </trkpt>
      <trkpt lat="47.53874" lon="-1.25498">
        <ele>67</ele>
        <time>2018-03-24T15:30:03Z</time>
      </trkpt>
      <trkpt lat="47.53872" lon="-1.25472">
        <ele>68</ele>
        <time>2018-03-24T15:30:09Z</time>
      </trkpt>
      <trkpt lat="47.53868" lon="-1.25454">
        <ele>68</ele>
        <time>2018-03-24T15:30:14Z</time>
      </trkpt>
      <trkpt lat="47.53866" lon="-1.25448">
        <ele>68</ele>
        <time>2018-03-24T15:31:13Z</time>
      </trkpt>
      <trkpt lat="47.53866" lon="-1.25444">
        <ele>68</ele>
        <time>2018-03-24T15:31:14Z</time>
      </trkpt>
      <trkpt lat="47.53862" lon="-1.25428">
        <ele>68</ele>
        <time>2018-03-24T15:31:18Z</time>
      </trkpt>
      <trkpt lat="47.53854" lon="-1.25417">
        <ele>68</ele>
        <time>2018-03-24T15:31:22Z</time>
      </trkpt>
      <trkpt lat="47.53852" lon="-1.25415">
        <ele>68</ele>
        <time>2018-03-24T15:31:23Z</time>
      </trkpt>
      <trkpt lat="47.53842" lon="-1.2539">
        <ele>67</ele>
        <time>2018-03-24T15:31:28Z</time>
      </trkpt>
      <trkpt lat="47.53839" lon="-1.25364">
        <ele>67</ele>
        <time>2018-03-24T15:31:33Z</time>
      </trkpt>
      <trkpt lat="47.53841" lon="-1.25338">
        <ele>67</ele>
        <time>2018-03-24T15:31:39Z</time>
      </trkpt>
      <trkpt lat="47.53845" lon="-1.25321">
        <ele>67</ele>
        <time>2018-03-24T15:31:45Z</time>
      </trkpt>
      <trkpt lat="47.53847" lon="-1.2531">
        <ele>68</ele>
        <time>2018-03-24T15:31:58Z</time>
      </trkpt>
      <trkpt lat="47.53848" lon="-1.25303">
        <ele>68</ele>
        <time>2018-03-24T15:32:00Z</time>
      </trkpt>
      <trkpt lat="47.53851" lon="-1.25282">
        <ele>68</ele>
        <time>2018-03-24T15:32:07Z</time>
      </trkpt>
      <trkpt lat="47.53858" lon="-1.25262">
        <ele>68</ele>
        <time>2018-03-24T15:32:14Z</time>
      </trkpt>
      <trkpt lat="47.53863" lon="-1.25247">
        <ele>69</ele>
        <time>2018-03-24T15:32:20Z</time>
      </trkpt>
      <trkpt lat="47.53864" lon="-1.25245">
        <ele>69</ele>
        <time>2018-03-24T15:32:21Z</time>
      </trkpt>
      <trkpt lat="47.53871" lon="-1.25232">
        <ele>69</ele>
        <time>2018-03-24T15:32:28Z</time>
      </trkpt>
      <trkpt lat="47.53877" lon="-1.25221">
        <ele>70</ele>
        <time>2018-03-24T15:32:35Z</time>
      </trkpt>
      <trkpt lat="47.53886" lon="-1.25207">
        <ele>70</ele>
        <time>2018-03-24T15:32:42Z</time>
      </trkpt>
      <trkpt lat="47.53896" lon="-1.25191">
        <ele>71</ele>
        <time>2018-03-24T15:32:50Z</time>
      </trkpt>
      <trkpt lat="47.53898" lon="-1.25189">
        <ele>71</ele>
        <time>2018-03-24T15:32:51Z</time>
      </trkpt>
      <trkpt lat="47.53905" lon="-1.25175">
        <ele>71</ele>
        <time>2018-03-24T15:32:57Z</time>
      </trkpt>
      <trkpt lat="47.53911" lon="-1.2516">
        <ele>72</ele>
        <time>2018-03-24T15:33:03Z</time>
      </trkpt>
      <trkpt lat="47.53918" lon="-1.2514">
        <ele>72</ele>
        <time>2018-03-24T15:33:16Z</time>
      </trkpt>
      <trkpt lat="47.5392" lon="-1.2513">
        <ele>72</ele>
        <time>2018-03-24T15:33:20Z</time>
      </trkpt>
      <trkpt lat="47.53923" lon="-1.25113">
        <ele>72</ele>
        <time>2018-03-24T15:33:26Z</time>
      </trkpt>
      <trkpt lat="47.53925" lon="-1.25109">
        <ele>72</ele>
        <time>2018-03-24T15:33:27Z</time>
      </trkpt>
      <trkpt lat="47.53925" lon="-1.25098">
        <ele>72</ele>
        <time>2018-03-24T15:33:30Z</time>
      </trkpt>
      <trkpt lat="47.53927" lon="-1.25093">
        <ele>72</ele>
        <time>2018-03-24T15:33:32Z</time>
      </trkpt>
      <trkpt lat="47.53932" lon="-1.25083">
        <ele>72</ele>
        <time>2018-03-24T15:33:36Z</time>
      </trkpt>
      <trkpt lat="47.53933" lon="-1.25077">
        <ele>72</ele>
        <time>2018-03-24T15:33:38Z</time>
      </trkpt>
      <trkpt lat="47.53941" lon="-1.2506">
        <ele>72</ele>
        <time>2018-03-24T15:33:45Z</time>
      </trkpt>
      <trkpt lat="47.53951" lon="-1.2504">
        <ele>72</ele>
        <time>2018-03-24T15:33:53Z</time>
      </trkpt>
      <trkpt lat="47.53957" lon="-1.25027">
        <ele>72</ele>
        <time>2018-03-24T15:34:00Z</time>
      </trkpt>
      <trkpt lat="47.53963" lon="-1.25018">
        <ele>72</ele>
        <time>2018-03-24T15:34:04Z</time>
      </trkpt>
      <trkpt lat="47.53973" lon="-1.25004">
        <ele>72</ele>
        <time>2018-03-24T15:34:10Z</time>
      </trkpt>
      <trkpt lat="47.53983" lon="-1.24991">
        <ele>72</ele>
        <time>2018-03-24T15:34:16Z</time>
      </trkpt>
      <trkpt lat="47.53989" lon="-1.24981">
        <ele>71</ele>
        <time>2018-03-24T15:34:21Z</time>
      </trkpt>
      <trkpt lat="47.53994" lon="-1.24975">
        <ele>71</ele>
        <time>2018-03-24T15:34:24Z</time>
      </trkpt>
      <trkpt lat="47.54003" lon="-1.24966">
        <ele>70</ele>
        <time>2018-03-24T15:34:29Z</time>
      </trkpt>
      <trkpt lat="47.54006" lon="-1.24962">
        <ele>70</ele>
        <time>2018-03-24T15:34:31Z</time>
      </trkpt>
      <trkpt lat="47.54014" lon="-1.24954">
        <ele>69</ele>
        <time>2018-03-24T15:34:35Z</time>
      </trkpt>
      <trkpt lat="47.54017" lon="-1.24951">
        <ele>69</ele>
        <time>2018-03-24T15:34:37Z</time>
      </trkpt>
      <trkpt lat="47.54026" lon="-1.24946">
        <ele>68</ele>
        <time>2018-03-24T15:34:41Z</time>
      </trkpt>
      <trkpt lat="47.54032" lon="-1.24941">
        <ele>68</ele>
        <time>2018-03-24T15:34:44Z</time>
      </trkpt>
      <trkpt lat="47.54058" lon="-1.24937">
        <ele>67</ele>
        <time>2018-03-24T15:35:10Z</time>
      </trkpt>
      <trkpt lat="47.54069" lon="-1.24943">
        <ele>66</ele>
        <time>2018-03-24T15:35:15Z</time>
      </trkpt>
      <trkpt lat="47.54076" lon="-1.24951">
        <ele>65</ele>
        <time>2018-03-24T15:35:18Z</time>
      </trkpt>
      <trkpt lat="47.54078" lon="-1.24954">
        <ele>65</ele>
        <time>2018-03-24T15:35:19Z</time>
      </trkpt>
      <trkpt lat="47.54082" lon="-1.24959">
        <ele>65</ele>
        <time>2018-03-24T15:35:21Z</time>
      </trkpt>
      <trkpt lat="47.54087" lon="-1.24971">
        <ele>65</ele>
        <time>2018-03-24T15:35:25Z</time>
      </trkpt>
      <trkpt lat="47.54087" lon="-1.24977">
        <ele>65</ele>
        <time>2018-03-24T15:35:27Z</time>
      </trkpt>
      <trkpt lat="47.54102" lon="-1.24997">
        <ele>65</ele>
        <time>2018-03-24T15:35:38Z</time>
      </trkpt>
      <trkpt lat="47.54108" lon="-1.25005">
        <ele>65</ele>
        <time>2018-03-24T15:36:00Z</time>
      </trkpt>
      <trkpt lat="47.5411" lon="-1.25007">
        <ele>65</ele>
        <time>2018-03-24T15:36:01Z</time>
      </trkpt>
      <trkpt lat="47.54122" lon="-1.2502">
        <ele>65</ele>
        <time>2018-03-24T15:36:06Z</time>
      </trkpt>
      <trkpt lat="47.54136" lon="-1.25035">
        <ele>65</ele>
        <time>2018-03-24T15:36:12Z</time>
      </trkpt>
      <trkpt lat="47.54139" lon="-1.25042">
        <ele>65</ele>
        <time>2018-03-24T15:36:14Z</time>
      </trkpt>
      <trkpt lat="47.54143" lon="-1.25053">
        <ele>65</ele>
        <time>2018-03-24T15:36:17Z</time>
      </trkpt>
      <trkpt lat="47.54151" lon="-1.25068">
        <ele>65</ele>
        <time>2018-03-24T15:36:23Z</time>
      </trkpt>
      <trkpt lat="47.54156" lon="-1.25074">
        <ele>65</ele>
        <time>2018-03-24T15:36:26Z</time>
      </trkpt>
      <trkpt lat="47.54164" lon="-1.25078">
        <ele>64</ele>
        <time>2018-03-24T15:36:28Z</time>
      </trkpt>
      <trkpt lat="47.54181" lon="-1.25085">
        <ele>64</ele>
        <time>2018-03-24T15:36:35Z</time>
      </trkpt>
      <trkpt lat="47.54189" lon="-1.25086">
        <ele>64</ele>
        <time>2018-03-24T15:36:39Z</time>
      </trkpt>
      <trkpt lat="47.54193" lon="-1.25083">
        <ele>64</ele>
        <time>2018-03-24T15:36:42Z</time>
      </trkpt>
      <trkpt lat="47.54196" lon="-1.25077">
        <ele>63</ele>
        <time>2018-03-24T15:36:47Z</time>
      </trkpt>
      <trkpt lat="47.54198" lon="-1.25076">
        <ele>63</ele>
        <time>2018-03-24T15:36:49Z</time>
      </trkpt>
      <trkpt lat="47.54202" lon="-1.25075">
        <ele>63</ele>
        <time>2018-03-24T15:36:55Z</time>
      </trkpt>
      <trkpt lat="47.54204" lon="-1.25077">
        <ele>63</ele>
        <time>2018-03-24T15:36:56Z</time>
      </trkpt>
      <trkpt lat="47.54212" lon="-1.25087">
        <ele>63</ele>
        <time>2018-03-24T15:36:59Z</time>
      </trkpt>
      <trkpt lat="47.54216" lon="-1.25091">
        <ele>63</ele>
        <time>2018-03-24T15:37:00Z</time>
      </trkpt>
      <trkpt lat="47.54241" lon="-1.25119">
        <ele>62</ele>
        <time>2018-03-24T15:37:07Z</time>
      </trkpt>
      <trkpt lat="47.54245" lon="-1.25123">
        <ele>62</ele>
        <time>2018-03-24T15:37:08Z</time>
      </trkpt>
      <trkpt lat="47.54281" lon="-1.25163">
        <ele>62</ele>
        <time>2018-03-24T15:37:18Z</time>
      </trkpt>
      <trkpt lat="47.54307" lon="-1.25194">
        <ele>61</ele>
        <time>2018-03-24T15:37:26Z</time>
      </trkpt>
      <trkpt lat="47.54336" lon="-1.25229">
        <ele>62</ele>
        <time>2018-03-24T15:37:33Z</time>
      </trkpt>
      <trkpt lat="47.54364" lon="-1.25262">
        <ele>62</ele>
        <time>2018-03-24T15:37:41Z</time>
      </trkpt>
      <trkpt lat="47.54383" lon="-1.25282">
        <ele>62</ele>
        <time>2018-03-24T15:37:48Z</time>
      </trkpt>
      <trkpt lat="47.54386" lon="-1.25297">
        <ele>62</ele>
        <time>2018-03-24T15:37:53Z</time>
      </trkpt>
      <trkpt lat="47.54383" lon="-1.253">
        <ele>61</ele>
        <time>2018-03-24T15:38:07Z</time>
      </trkpt>
      <trkpt lat="47.54382" lon="-1.25302">
        <ele>61</ele>
        <time>2018-03-24T15:38:08Z</time>
      </trkpt>
      <trkpt lat="47.54371" lon="-1.25317">
        <ele>61</ele>
        <time>2018-03-24T15:38:12Z</time>
      </trkpt>
      <trkpt lat="47.54354" lon="-1.25342">
        <ele>61</ele>
        <time>2018-03-24T15:38:18Z</time>
      </trkpt>
      <trkpt lat="47.54338" lon="-1.25366">
        <ele>60</ele>
        <time>2018-03-24T15:38:24Z</time>
      </trkpt>
      <trkpt lat="47.54325" lon="-1.25385">
        <ele>60</ele>
        <time>2018-03-24T15:38:30Z</time>
      </trkpt>
      <trkpt lat="47.54307" lon="-1.25416">
        <ele>60</ele>
        <time>2018-03-24T15:38:37Z</time>
      </trkpt>
      <trkpt lat="47.54293" lon="-1.25438">
        <ele>60</ele>
        <time>2018-03-24T15:38:43Z</time>
      </trkpt>
      <trkpt lat="47.54278" lon="-1.25461">
        <ele>61</ele>
        <time>2018-03-24T15:38:49Z</time>
      </trkpt>
      <trkpt lat="47.54265" lon="-1.25474">
        <ele>61</ele>
        <time>2018-03-24T15:38:54Z</time>
      </trkpt>
      <trkpt lat="47.54254" lon="-1.25496">
        <ele>61</ele>
        <time>2018-03-24T15:38:59Z</time>
      </trkpt>
      <trkpt lat="47.54251" lon="-1.255">
        <ele>61</ele>
        <time>2018-03-24T15:39:00Z</time>
      </trkpt>
      <trkpt lat="47.5424" lon="-1.25513">
        <ele>62</ele>
        <time>2018-03-24T15:39:04Z</time>
      </trkpt>
      <trkpt lat="47.54219" lon="-1.25544">
        <ele>62</ele>
        <time>2018-03-24T15:39:11Z</time>
      </trkpt>
      <trkpt lat="47.54216" lon="-1.25548">
        <ele>62</ele>
        <time>2018-03-24T15:39:12Z</time>
      </trkpt>
      <trkpt lat="47.54198" lon="-1.25579">
        <ele>63</ele>
        <time>2018-03-24T15:39:19Z</time>
      </trkpt>
      <trkpt lat="47.54183" lon="-1.25608">
        <ele>64</ele>
        <time>2018-03-24T15:39:26Z</time>
      </trkpt>
      <trkpt lat="47.54178" lon="-1.25615">
        <ele>64</ele>
        <time>2018-03-24T15:39:28Z</time>
      </trkpt>
      <trkpt lat="47.54167" lon="-1.25633">
        <ele>65</ele>
        <time>2018-03-24T15:39:33Z</time>
      </trkpt>
      <trkpt lat="47.54158" lon="-1.25643">
        <ele>66</ele>
        <time>2018-03-24T15:39:37Z</time>
      </trkpt>
      <trkpt lat="47.54151" lon="-1.2565">
        <ele>66</ele>
        <time>2018-03-24T15:39:40Z</time>
      </trkpt>
      <trkpt lat="47.54142" lon="-1.25665">
        <ele>66</ele>
        <time>2018-03-24T15:39:46Z</time>
      </trkpt>
      <trkpt lat="47.54141" lon="-1.25668">
        <ele>67</ele>
        <time>2018-03-24T15:39:47Z</time>
      </trkpt>
      <trkpt lat="47.54128" lon="-1.25685">
        <ele>67</ele>
        <time>2018-03-24T15:39:53Z</time>
      </trkpt>
      <trkpt lat="47.54119" lon="-1.25699">
        <ele>68</ele>
        <time>2018-03-24T15:39:58Z</time>
      </trkpt>
      <trkpt lat="47.54113" lon="-1.25709">
        <ele>68</ele>
        <time>2018-03-24T15:40:02Z</time>
      </trkpt>
      <trkpt lat="47.54101" lon="-1.25725">
        <ele>68</ele>
        <time>2018-03-24T15:40:08Z</time>
      </trkpt>
      <trkpt lat="47.54095" lon="-1.25738">
        <ele>69</ele>
        <time>2018-03-24T15:40:12Z</time>
      </trkpt>
      <trkpt lat="47.54092" lon="-1.25744">
        <ele>69</ele>
        <time>2018-03-24T15:40:14Z</time>
      </trkpt>
      <trkpt lat="47.54082" lon="-1.25758">
        <ele>69</ele>
        <time>2018-03-24T15:40:20Z</time>
      </trkpt>
      <trkpt lat="47.54073" lon="-1.25774">
        <ele>69</ele>
        <time>2018-03-24T15:40:26Z</time>
      </trkpt>
      <trkpt lat="47.54068" lon="-1.25783">
        <ele>70</ele>
        <time>2018-03-24T15:40:29Z</time>
      </trkpt>
      <trkpt lat="47.54062" lon="-1.25794">
        <ele>70</ele>
        <time>2018-03-24T15:40:33Z</time>
      </trkpt>
      <trkpt lat="47.54052" lon="-1.25812">
        <ele>71</ele>
        <time>2018-03-24T15:40:40Z</time>
      </trkpt>
      <trkpt lat="47.54048" lon="-1.25817">
        <ele>71</ele>
        <time>2018-03-24T15:40:42Z</time>
      </trkpt>
      <trkpt lat="47.54041" lon="-1.25826">
        <ele>71</ele>
        <time>2018-03-24T15:40:45Z</time>
      </trkpt>
      <trkpt lat="47.54028" lon="-1.25845">
        <ele>71</ele>
        <time>2018-03-24T15:40:52Z</time>
      </trkpt>
      <trkpt lat="47.54015" lon="-1.25865">
        <ele>71</ele>
        <time>2018-03-24T15:40:59Z</time>
      </trkpt>
      <trkpt lat="47.54" lon="-1.25888">
        <ele>71</ele>
        <time>2018-03-24T15:41:06Z</time>
      </trkpt>
      <trkpt lat="47.53988" lon="-1.25909">
        <ele>71</ele>
        <time>2018-03-24T15:41:12Z</time>
      </trkpt>
      <trkpt lat="47.53972" lon="-1.25931">
        <ele>71</ele>
        <time>2018-03-24T15:41:18Z</time>
      </trkpt>
      <trkpt lat="47.53963" lon="-1.25947">
        <ele>70</ele>
        <time>2018-03-24T15:41:24Z</time>
      </trkpt>
      <trkpt lat="47.53953" lon="-1.25955">
        <ele>70</ele>
        <time>2018-03-24T15:41:29Z</time>
      </trkpt>
      <trkpt lat="47.53949" lon="-1.25958">
        <ele>70</ele>
        <time>2018-03-24T15:45:48Z</time>
      </trkpt>
      <trkpt lat="47.53948" lon="-1.2596">
        <ele>70</ele>
        <time>2018-03-24T15:45:49Z</time>
      </trkpt>
      <trkpt lat="47.53938" lon="-1.25977">
        <ele>70</ele>
        <time>2018-03-24T15:45:54Z</time>
      </trkpt>
      <trkpt lat="47.53918" lon="-1.26011">
        <ele>69</ele>
        <time>2018-03-24T15:46:00Z</time>
      </trkpt>
      <trkpt lat="47.53901" lon="-1.26041">
        <ele>69</ele>
        <time>2018-03-24T15:46:05Z</time>
      </trkpt>
      <trkpt lat="47.53892" lon="-1.26052">
        <ele>68</ele>
        <time>2018-03-24T15:46:07Z</time>
      </trkpt>
      <trkpt lat="47.53881" lon="-1.26069">
        <ele>67</ele>
        <time>2018-03-24T15:46:10Z</time>
      </trkpt>
      <trkpt lat="47.53877" lon="-1.26074">
        <ele>67</ele>
        <time>2018-03-24T15:46:11Z</time>
      </trkpt>
      <trkpt lat="47.53869" lon="-1.26085">
        <ele>67</ele>
        <time>2018-03-24T15:46:13Z</time>
      </trkpt>
      <trkpt lat="47.53848" lon="-1.26115">
        <ele>66</ele>
        <time>2018-03-24T15:46:19Z</time>
      </trkpt>
      <trkpt lat="47.53822" lon="-1.26156">
        <ele>66</ele>
        <time>2018-03-24T15:46:27Z</time>
      </trkpt>
      <trkpt lat="47.53801" lon="-1.26187">
        <ele>65</ele>
        <time>2018-03-24T15:46:33Z</time>
      </trkpt>
      <trkpt lat="47.53795" lon="-1.26197">
        <ele>65</ele>
        <time>2018-03-24T15:46:35Z</time>
      </trkpt>
      <trkpt lat="47.53784" lon="-1.26212">
        <ele>65</ele>
        <time>2018-03-24T15:46:38Z</time>
      </trkpt>
      <trkpt lat="47.53774" lon="-1.26228">
        <ele>64</ele>
        <time>2018-03-24T15:46:41Z</time>
      </trkpt>
      <trkpt lat="47.53771" lon="-1.26234">
        <ele>64</ele>
        <time>2018-03-24T15:46:42Z</time>
      </trkpt>
      <trkpt lat="47.53764" lon="-1.26245">
        <ele>64</ele>
        <time>2018-03-24T15:46:44Z</time>
      </trkpt>
      <trkpt lat="47.53748" lon="-1.26269">
        <ele>63</ele>
        <time>2018-03-24T15:46:48Z</time>
      </trkpt>
      <trkpt lat="47.53744" lon="-1.26275">
        <ele>63</ele>
        <time>2018-03-24T15:46:49Z</time>
      </trkpt>
      <trkpt lat="47.53737" lon="-1.26287">
        <ele>63</ele>
        <time>2018-03-24T15:46:51Z</time>
      </trkpt>
      <trkpt lat="47.53729" lon="-1.263">
        <ele>62</ele>
        <time>2018-03-24T15:46:53Z</time>
      </trkpt>
      <trkpt lat="47.5371" lon="-1.26331">
        <ele>61</ele>
        <time>2018-03-24T15:46:58Z</time>
      </trkpt>
      <trkpt lat="47.53691" lon="-1.26361">
        <ele>60</ele>
        <time>2018-03-24T15:47:03Z</time>
      </trkpt>
      <trkpt lat="47.53688" lon="-1.26367">
        <ele>60</ele>
        <time>2018-03-24T15:47:04Z</time>
      </trkpt>
      <trkpt lat="47.53669" lon="-1.26398">
        <ele>59</ele>
        <time>2018-03-24T15:47:09Z</time>
      </trkpt>
      <trkpt lat="47.53662" lon="-1.26409">
        <ele>59</ele>
        <time>2018-03-24T15:47:11Z</time>
      </trkpt>
      <trkpt lat="47.53641" lon="-1.26445">
        <ele>58</ele>
        <time>2018-03-24T15:47:18Z</time>
      </trkpt>
      <trkpt lat="47.53639" lon="-1.26451">
        <ele>58</ele>
        <time>2018-03-24T15:47:19Z</time>
      </trkpt>
      <trkpt lat="47.53632" lon="-1.26463">
        <ele>58</ele>
        <time>2018-03-24T15:47:21Z</time>
      </trkpt>
      <trkpt lat="47.53621" lon="-1.2648">
        <ele>57</ele>
        <time>2018-03-24T15:47:24Z</time>
      </trkpt>
      <trkpt lat="47.53608" lon="-1.26499">
        <ele>57</ele>
        <time>2018-03-24T15:47:28Z</time>
      </trkpt>
      <trkpt lat="47.53602" lon="-1.26509">
        <ele>57</ele>
        <time>2018-03-24T15:47:30Z</time>
      </trkpt>
      <trkpt lat="47.53578" lon="-1.26546">
        <ele>56</ele>
        <time>2018-03-24T15:47:37Z</time>
      </trkpt>
      <trkpt lat="47.5356" lon="-1.26575">
        <ele>56</ele>
        <time>2018-03-24T15:47:43Z</time>
      </trkpt>
      <trkpt lat="47.53543" lon="-1.26602">
        <ele>56</ele>
        <time>2018-03-24T15:47:49Z</time>
      </trkpt>
      <trkpt lat="47.53526" lon="-1.26625">
        <ele>56</ele>
        <time>2018-03-24T15:47:55Z</time>
      </trkpt>
      <trkpt lat="47.5352" lon="-1.26636">
        <ele>55</ele>
        <time>2018-03-24T15:47:59Z</time>
      </trkpt>
      <trkpt lat="47.53509" lon="-1.26654">
        <ele>55</ele>
        <time>2018-03-24T15:48:06Z</time>
      </trkpt>
      <trkpt lat="47.53495" lon="-1.26674">
        <ele>55</ele>
        <time>2018-03-24T15:48:12Z</time>
      </trkpt>
      <trkpt lat="47.53483" lon="-1.26692">
        <ele>55</ele>
        <time>2018-03-24T15:48:18Z</time>
      </trkpt>
      <trkpt lat="47.53473" lon="-1.26705">
        <ele>55</ele>
        <time>2018-03-24T15:48:23Z</time>
      </trkpt>
      <trkpt lat="47.53458" lon="-1.26728">
        <ele>55</ele>
        <time>2018-03-24T15:48:30Z</time>
      </trkpt>
      <trkpt lat="47.5344" lon="-1.26753">
        <ele>55</ele>
        <time>2018-03-24T15:48:37Z</time>
      </trkpt>
      <trkpt lat="47.53422" lon="-1.26779">
        <ele>55</ele>
        <time>2018-03-24T15:48:44Z</time>
      </trkpt>
      <trkpt lat="47.53412" lon="-1.26798">
        <ele>55</ele>
        <time>2018-03-24T15:48:50Z</time>
      </trkpt>
      <trkpt lat="47.53406" lon="-1.26814">
        <ele>55</ele>
        <time>2018-03-24T15:48:56Z</time>
      </trkpt>
      <trkpt lat="47.53392" lon="-1.26834">
        <ele>55</ele>
        <time>2018-03-24T15:49:01Z</time>
      </trkpt>
      <trkpt lat="47.53381" lon="-1.26847">
        <ele>55</ele>
        <time>2018-03-24T15:49:05Z</time>
      </trkpt>
      <trkpt lat="47.53374" lon="-1.26855">
        <ele>55</ele>
        <time>2018-03-24T15:49:08Z</time>
      </trkpt>
      <trkpt lat="47.53364" lon="-1.26876">
        <ele>55</ele>
        <time>2018-03-24T15:49:14Z</time>
      </trkpt>
      <trkpt lat="47.5335" lon="-1.26899">
        <ele>55</ele>
        <time>2018-03-24T15:49:20Z</time>
      </trkpt>
      <trkpt lat="47.53335" lon="-1.26921">
        <ele>55</ele>
        <time>2018-03-24T15:49:26Z</time>
      </trkpt>
      <trkpt lat="47.53319" lon="-1.2695">
        <ele>55</ele>
        <time>2018-03-24T15:49:33Z</time>
      </trkpt>
      <trkpt lat="47.53301" lon="-1.26978">
        <ele>56</ele>
        <time>2018-03-24T15:49:40Z</time>
      </trkpt>
      <trkpt lat="47.53299" lon="-1.26982">
        <ele>56</ele>
        <time>2018-03-24T15:49:41Z</time>
      </trkpt>
      <trkpt lat="47.53284" lon="-1.27005">
        <ele>56</ele>
        <time>2018-03-24T15:49:47Z</time>
      </trkpt>
      <trkpt lat="47.53273" lon="-1.27021">
        <ele>57</ele>
        <time>2018-03-24T15:49:52Z</time>
      </trkpt>
      <trkpt lat="47.53263" lon="-1.27035">
        <ele>57</ele>
        <time>2018-03-24T15:49:56Z</time>
      </trkpt>
      <trkpt lat="47.53251" lon="-1.27052">
        <ele>57</ele>
        <time>2018-03-24T15:50:00Z</time>
      </trkpt>
      <trkpt lat="47.53249" lon="-1.27057">
        <ele>57</ele>
        <time>2018-03-24T15:50:01Z</time>
      </trkpt>
      <trkpt lat="47.53233" lon="-1.27087">
        <ele>58</ele>
        <time>2018-03-24T15:50:08Z</time>
      </trkpt>
      <trkpt lat="47.53227" lon="-1.27098">
        <ele>58</ele>
        <time>2018-03-24T15:50:11Z</time>
      </trkpt>
      <trkpt lat="47.53217" lon="-1.27114">
        <ele>58</ele>
        <time>2018-03-24T15:50:15Z</time>
      </trkpt>
      <trkpt lat="47.53201" lon="-1.27137">
        <ele>59</ele>
        <time>2018-03-24T15:50:21Z</time>
      </trkpt>
      <trkpt lat="47.53186" lon="-1.27161">
        <ele>59</ele>
        <time>2018-03-24T15:50:27Z</time>
      </trkpt>
      <trkpt lat="47.53175" lon="-1.27181">
        <ele>59</ele>
        <time>2018-03-24T15:50:33Z</time>
      </trkpt>
      <trkpt lat="47.53174" lon="-1.27184">
        <ele>59</ele>
        <time>2018-03-24T15:50:34Z</time>
      </trkpt>
      <trkpt lat="47.53169" lon="-1.27202">
        <ele>59</ele>
        <time>2018-03-24T15:50:39Z</time>
      </trkpt>
      <trkpt lat="47.53165" lon="-1.27239">
        <ele>59</ele>
        <time>2018-03-24T15:50:48Z</time>
      </trkpt>
      <trkpt lat="47.53162" lon="-1.2728">
        <ele>59</ele>
        <time>2018-03-24T15:50:54Z</time>
      </trkpt>
      <trkpt lat="47.5316" lon="-1.27315">
        <ele>59</ele>
        <time>2018-03-24T15:51:00Z</time>
      </trkpt>
      <trkpt lat="47.53158" lon="-1.27354">
        <ele>59</ele>
        <time>2018-03-24T15:51:07Z</time>
      </trkpt>
      <trkpt lat="47.53155" lon="-1.27398">
        <ele>59</ele>
        <time>2018-03-24T15:51:15Z</time>
      </trkpt>
      <trkpt lat="47.53153" lon="-1.27427">
        <ele>59</ele>
        <time>2018-03-24T15:51:21Z</time>
      </trkpt>
      <trkpt lat="47.53151" lon="-1.2746">
        <ele>59</ele>
        <time>2018-03-24T15:51:28Z</time>
      </trkpt>
      <trkpt lat="47.53144" lon="-1.27484">
        <ele>59</ele>
        <time>2018-03-24T15:51:34Z</time>
      </trkpt>
      <trkpt lat="47.53134" lon="-1.27505">
        <ele>59</ele>
        <time>2018-03-24T15:51:40Z</time>
      </trkpt>
      <trkpt lat="47.53124" lon="-1.27533">
        <ele>59</ele>
        <time>2018-03-24T15:51:48Z</time>
      </trkpt>
      <trkpt lat="47.53116" lon="-1.27557">
        <ele>59</ele>
        <time>2018-03-24T15:51:54Z</time>
      </trkpt>
      <trkpt lat="47.53106" lon="-1.27584">
        <ele>59</ele>
        <time>2018-03-24T15:52:01Z</time>
      </trkpt>
      <trkpt lat="47.53093" lon="-1.27613">
        <ele>58</ele>
        <time>2018-03-24T15:52:09Z</time>
      </trkpt>
      <trkpt lat="47.53086" lon="-1.27631">
        <ele>58</ele>
        <time>2018-03-24T15:52:13Z</time>
      </trkpt>
      <trkpt lat="47.53079" lon="-1.27643">
        <ele>58</ele>
        <time>2018-03-24T15:52:16Z</time>
      </trkpt>
      <trkpt lat="47.53071" lon="-1.27662">
        <ele>57</ele>
        <time>2018-03-24T15:52:21Z</time>
      </trkpt>
      <trkpt lat="47.53063" lon="-1.27681">
        <ele>57</ele>
        <time>2018-03-24T15:54:03Z</time>
      </trkpt>
      <trkpt lat="47.53057" lon="-1.27703">
        <ele>57</ele>
        <time>2018-03-24T15:54:08Z</time>
      </trkpt>
      <trkpt lat="47.53047" lon="-1.27731">
        <ele>57</ele>
        <time>2018-03-24T15:54:13Z</time>
      </trkpt>
      <trkpt lat="47.53035" lon="-1.2777">
        <ele>57</ele>
        <time>2018-03-24T15:54:20Z</time>
      </trkpt>
      <trkpt lat="47.53025" lon="-1.27807">
        <ele>57</ele>
        <time>2018-03-24T15:54:26Z</time>
      </trkpt>
      <trkpt lat="47.53015" lon="-1.2783">
        <ele>57</ele>
        <time>2018-03-24T15:54:31Z</time>
      </trkpt>
      <trkpt lat="47.53005" lon="-1.27859">
        <ele>57</ele>
        <time>2018-03-24T15:54:38Z</time>
      </trkpt>
      <trkpt lat="47.53" lon="-1.27875">
        <ele>57</ele>
        <time>2018-03-24T15:55:11Z</time>
      </trkpt>
      <trkpt lat="47.52996" lon="-1.2789">
        <ele>57</ele>
        <time>2018-03-24T15:55:16Z</time>
      </trkpt>
      <trkpt lat="47.52993" lon="-1.27889">
        <ele>57</ele>
        <time>2018-03-24T15:55:34Z</time>
      </trkpt>
      <trkpt lat="47.52995" lon="-1.27876">
        <ele>57</ele>
        <time>2018-03-24T15:55:40Z</time>
      </trkpt>
      <trkpt lat="47.5299" lon="-1.2787">
        <ele>57</ele>
        <time>2018-03-24T15:55:44Z</time>
      </trkpt>
      <trkpt lat="47.52978" lon="-1.27872">
        <ele>58</ele>
        <time>2018-03-24T15:55:49Z</time>
      </trkpt>
      <trkpt lat="47.52959" lon="-1.27879">
        <ele>58</ele>
        <time>2018-03-24T15:55:55Z</time>
      </trkpt>
      <trkpt lat="47.52937" lon="-1.27887">
        <ele>58</ele>
        <time>2018-03-24T15:56:02Z</time>
      </trkpt>
      <trkpt lat="47.52922" lon="-1.27893">
        <ele>58</ele>
        <time>2018-03-24T15:56:07Z</time>
      </trkpt>
      <trkpt lat="47.52897" lon="-1.27901">
        <ele>58</ele>
        <time>2018-03-24T15:56:15Z</time>
      </trkpt>
      <trkpt lat="47.5287" lon="-1.27909">
        <ele>58</ele>
        <time>2018-03-24T15:56:23Z</time>
      </trkpt>
      <trkpt lat="47.52845" lon="-1.27916">
        <ele>58</ele>
        <time>2018-03-24T15:56:30Z</time>
      </trkpt>
      <trkpt lat="47.5282" lon="-1.27923">
        <ele>58</ele>
        <time>2018-03-24T15:56:37Z</time>
      </trkpt>
      <trkpt lat="47.52791" lon="-1.27932">
        <ele>57</ele>
        <time>2018-03-24T15:56:44Z</time>
      </trkpt>
      <trkpt lat="47.52772" lon="-1.27939">
        <ele>57</ele>
        <time>2018-03-24T15:56:49Z</time>
      </trkpt>
      <trkpt lat="47.52736" lon="-1.27951">
        <ele>56</ele>
        <time>2018-03-24T15:56:58Z</time>
      </trkpt>
      <trkpt lat="47.52728" lon="-1.27954">
        <ele>56</ele>
        <time>2018-03-24T15:57:00Z</time>
      </trkpt>
      <trkpt lat="47.52702" lon="-1.27963">
        <ele>55</ele>
        <time>2018-03-24T15:57:06Z</time>
      </trkpt>
      <trkpt lat="47.52698" lon="-1.27965">
        <ele>55</ele>
        <time>2018-03-24T15:57:07Z</time>
      </trkpt>
      <trkpt lat="47.5267" lon="-1.27977">
        <ele>54</ele>
        <time>2018-03-24T15:57:14Z</time>
      </trkpt>
      <trkpt lat="47.52664" lon="-1.2798">
        <ele>54</ele>
        <time>2018-03-24T15:57:16Z</time>
      </trkpt>
      <trkpt lat="47.52655" lon="-1.27983">
        <ele>53</ele>
        <time>2018-03-24T15:57:19Z</time>
      </trkpt>
      <trkpt lat="47.52635" lon="-1.27988">
        <ele>53</ele>
        <time>2018-03-24T15:57:25Z</time>
      </trkpt>
      <trkpt lat="47.52633" lon="-1.27987">
        <ele>52</ele>
        <time>2018-03-24T15:57:26Z</time>
      </trkpt>
      <trkpt lat="47.52627" lon="-1.27978">
        <ele>52</ele>
        <time>2018-03-24T15:59:09Z</time>
      </trkpt>
      <trkpt lat="47.52626" lon="-1.27976">
        <ele>52</ele>
        <time>2018-03-24T15:59:10Z</time>
      </trkpt>
      <trkpt lat="47.52621" lon="-1.27952">
        <ele>52</ele>
        <time>2018-03-24T15:59:17Z</time>
      </trkpt>
      <trkpt lat="47.52617" lon="-1.27929">
        <ele>52</ele>
        <time>2018-03-24T15:59:24Z</time>
      </trkpt>
      <trkpt lat="47.52613" lon="-1.27915">
        <ele>52</ele>
        <time>2018-03-24T15:59:29Z</time>
      </trkpt>
      <trkpt lat="47.52613" lon="-1.2791">
        <ele>52</ele>
        <time>2018-03-24T15:59:30Z</time>
      </trkpt>
      <trkpt lat="47.5261" lon="-1.27886">
        <ele>51</ele>
        <time>2018-03-24T15:59:34Z</time>
      </trkpt>
      <trkpt lat="47.52608" lon="-1.27864">
        <ele>51</ele>
        <time>2018-03-24T15:59:37Z</time>
      </trkpt>
      <trkpt lat="47.52608" lon="-1.27844">
        <ele>51</ele>
        <time>2018-03-24T15:59:40Z</time>
      </trkpt>
      <trkpt lat="47.52602" lon="-1.27808">
        <ele>50</ele>
        <time>2018-03-24T15:59:46Z</time>
      </trkpt>
      <trkpt lat="47.52596" lon="-1.27778">
        <ele>50</ele>
        <time>2018-03-24T15:59:50Z</time>
      </trkpt>
      <trkpt lat="47.52594" lon="-1.2777">
        <ele>50</ele>
        <time>2018-03-24T15:59:51Z</time>
      </trkpt>
      <trkpt lat="47.52591" lon="-1.27746">
        <ele>49</ele>
        <time>2018-03-24T15:59:54Z</time>
      </trkpt>
      <trkpt lat="47.5259" lon="-1.27726">
        <ele>49</ele>
        <time>2018-03-24T15:59:57Z</time>
      </trkpt>
      <trkpt lat="47.52588" lon="-1.27705">
        <ele>49</ele>
        <time>2018-03-24T16:00:00Z</time>
      </trkpt>
      <trkpt lat="47.52589" lon="-1.2769">
        <ele>49</ele>
        <time>2018-03-24T16:00:02Z</time>
      </trkpt>
      <trkpt lat="47.52591" lon="-1.27683">
        <ele>48</ele>
        <time>2018-03-24T16:00:03Z</time>
      </trkpt>
      <trkpt lat="47.52599" lon="-1.27651">
        <ele>48</ele>
        <time>2018-03-24T16:00:08Z</time>
      </trkpt>
      <trkpt lat="47.52611" lon="-1.27608">
        <ele>48</ele>
        <time>2018-03-24T16:00:15Z</time>
      </trkpt>
      <trkpt lat="47.52626" lon="-1.27558">
        <ele>48</ele>
        <time>2018-03-24T16:00:23Z</time>
      </trkpt>
      <trkpt lat="47.52629" lon="-1.27546">
        <ele>47</ele>
        <time>2018-03-24T16:00:25Z</time>
      </trkpt>
      <trkpt lat="47.52633" lon="-1.2753">
        <ele>46</ele>
        <time>2018-03-24T16:00:28Z</time>
      </trkpt>
      <trkpt lat="47.52634" lon="-1.27526">
        <ele>46</ele>
        <time>2018-03-24T16:00:29Z</time>
      </trkpt>
      <trkpt lat="47.52641" lon="-1.27502">
        <ele>47</ele>
        <time>2018-03-24T16:00:36Z</time>
      </trkpt>
      <trkpt lat="47.52645" lon="-1.27487">
        <ele>48</ele>
        <time>2018-03-24T16:00:41Z</time>
      </trkpt>
      <trkpt lat="47.52651" lon="-1.27467">
        <ele>49</ele>
        <time>2018-03-24T16:00:46Z</time>
      </trkpt>
      <trkpt lat="47.52656" lon="-1.27451">
        <ele>50</ele>
        <time>2018-03-24T16:00:51Z</time>
      </trkpt>
      <trkpt lat="47.52664" lon="-1.2742">
        <ele>51</ele>
        <time>2018-03-24T16:00:58Z</time>
      </trkpt>
      <trkpt lat="47.52672" lon="-1.27387">
        <ele>52</ele>
        <time>2018-03-24T16:01:05Z</time>
      </trkpt>
      <trkpt lat="47.52674" lon="-1.27382">
        <ele>52</ele>
        <time>2018-03-24T16:01:06Z</time>
      </trkpt>
      <trkpt lat="47.52678" lon="-1.27351">
        <ele>52</ele>
        <time>2018-03-24T16:01:12Z</time>
      </trkpt>
      <trkpt lat="47.52683" lon="-1.27319">
        <ele>52</ele>
        <time>2018-03-24T16:01:18Z</time>
      </trkpt>
      <trkpt lat="47.52693" lon="-1.27272">
        <ele>52</ele>
        <time>2018-03-24T16:01:26Z</time>
      </trkpt>
      <trkpt lat="47.52703" lon="-1.27233">
        <ele>51</ele>
        <time>2018-03-24T16:01:32Z</time>
      </trkpt>
      <trkpt lat="47.52711" lon="-1.27194">
        <ele>51</ele>
        <time>2018-03-24T16:01:38Z</time>
      </trkpt>
      <trkpt lat="47.52713" lon="-1.27187">
        <ele>51</ele>
        <time>2018-03-24T16:01:39Z</time>
      </trkpt>
      <trkpt lat="47.5272" lon="-1.27153">
        <ele>50</ele>
        <time>2018-03-24T16:01:44Z</time>
      </trkpt>
      <trkpt lat="47.52725" lon="-1.27138">
        <ele>49</ele>
        <time>2018-03-24T16:01:46Z</time>
      </trkpt>
      <trkpt lat="47.52729" lon="-1.27121">
        <ele>48</ele>
        <time>2018-03-24T16:01:48Z</time>
      </trkpt>
      <trkpt lat="47.52737" lon="-1.27087">
        <ele>47</ele>
        <time>2018-03-24T16:01:52Z</time>
      </trkpt>
      <trkpt lat="47.52742" lon="-1.27065">
        <ele>46</ele>
        <time>2018-03-24T16:01:56Z</time>
      </trkpt>
      <trkpt lat="47.52747" lon="-1.27047">
        <ele>47</ele>
        <time>2018-03-24T16:02:01Z</time>
      </trkpt>
      <trkpt lat="47.52749" lon="-1.27043">
        <ele>48</ele>
        <time>2018-03-24T16:02:02Z</time>
      </trkpt>
      <trkpt lat="47.52751" lon="-1.27037">
        <ele>48</ele>
        <time>2018-03-24T16:02:04Z</time>
      </trkpt>
      <trkpt lat="47.52757" lon="-1.27022">
        <ele>49</ele>
        <time>2018-03-24T16:02:08Z</time>
      </trkpt>
      <trkpt lat="47.52759" lon="-1.27015">
        <ele>50</ele>
        <time>2018-03-24T16:02:10Z</time>
      </trkpt>
      <trkpt lat="47.5276" lon="-1.2701">
        <ele>50</ele>
        <time>2018-03-24T16:02:12Z</time>
      </trkpt>
      <trkpt lat="47.52761" lon="-1.27005">
        <ele>51</ele>
        <time>2018-03-24T16:03:22Z</time>
      </trkpt>
      <trkpt lat="47.52762" lon="-1.26998">
        <ele>51</ele>
        <time>2018-03-24T16:03:24Z</time>
      </trkpt>
      <trkpt lat="47.52767" lon="-1.2698">
        <ele>51</ele>
        <time>2018-03-24T16:03:28Z</time>
      </trkpt>
      <trkpt lat="47.52779" lon="-1.26944">
        <ele>50</ele>
        <time>2018-03-24T16:03:35Z</time>
      </trkpt>
      <trkpt lat="47.52786" lon="-1.26908">
        <ele>51</ele>
        <time>2018-03-24T16:03:42Z</time>
      </trkpt>
      <trkpt lat="47.52794" lon="-1.26881">
        <ele>51</ele>
        <time>2018-03-24T16:03:47Z</time>
      </trkpt>
      <trkpt lat="47.528" lon="-1.26859">
        <ele>51</ele>
        <time>2018-03-24T16:03:52Z</time>
      </trkpt>
      <trkpt lat="47.52806" lon="-1.2684">
        <ele>51</ele>
        <time>2018-03-24T16:03:58Z</time>
      </trkpt>
      <trkpt lat="47.52809" lon="-1.26819">
        <ele>52</ele>
        <time>2018-03-24T16:04:04Z</time>
      </trkpt>
      <trkpt lat="47.52813" lon="-1.26797">
        <ele>52</ele>
        <time>2018-03-24T16:04:10Z</time>
      </trkpt>
      <trkpt lat="47.52816" lon="-1.26774">
        <ele>52</ele>
        <time>2018-03-24T16:04:17Z</time>
      </trkpt>
      <trkpt lat="47.5282" lon="-1.26752">
        <ele>53</ele>
        <time>2018-03-24T16:04:23Z</time>
      </trkpt>
      <trkpt lat="47.52826" lon="-1.26725">
        <ele>53</ele>
        <time>2018-03-24T16:04:29Z</time>
      </trkpt>
      <trkpt lat="47.52829" lon="-1.26705">
        <ele>53</ele>
        <time>2018-03-24T16:04:34Z</time>
      </trkpt>
      <trkpt lat="47.52831" lon="-1.26697">
        <ele>53</ele>
        <time>2018-03-24T16:04:36Z</time>
      </trkpt>
      <trkpt lat="47.52841" lon="-1.26667">
        <ele>53</ele>
        <time>2018-03-24T16:04:43Z</time>
      </trkpt>
      <trkpt lat="47.52849" lon="-1.26642">
        <ele>54</ele>
        <time>2018-03-24T16:04:48Z</time>
      </trkpt>
      <trkpt lat="47.52851" lon="-1.26634">
        <ele>54</ele>
        <time>2018-03-24T16:04:50Z</time>
      </trkpt>
      <trkpt lat="47.52857" lon="-1.26609">
        <ele>54</ele>
        <time>2018-03-24T16:04:56Z</time>
      </trkpt>
      <trkpt lat="47.52863" lon="-1.2658">
        <ele>54</ele>
        <time>2018-03-24T16:05:02Z</time>
      </trkpt>
      <trkpt lat="47.52873" lon="-1.26549">
        <ele>54</ele>
        <time>2018-03-24T16:05:08Z</time>
      </trkpt>
      <trkpt lat="47.52881" lon="-1.26516">
        <ele>54</ele>
        <time>2018-03-24T16:05:15Z</time>
      </trkpt>
      <trkpt lat="47.52886" lon="-1.26493">
        <ele>54</ele>
        <time>2018-03-24T16:05:20Z</time>
      </trkpt>
      <trkpt lat="47.52892" lon="-1.2647">
        <ele>54</ele>
        <time>2018-03-24T16:05:26Z</time>
      </trkpt>
      <trkpt lat="47.52898" lon="-1.26448">
        <ele>54</ele>
        <time>2018-03-24T16:05:31Z</time>
      </trkpt>
      <trkpt lat="47.52906" lon="-1.2641">
        <ele>53</ele>
        <time>2018-03-24T16:05:38Z</time>
      </trkpt>
      <trkpt lat="47.5291" lon="-1.26393">
        <ele>53</ele>
        <time>2018-03-24T16:05:41Z</time>
      </trkpt>
      <trkpt lat="47.52915" lon="-1.26376">
        <ele>52</ele>
        <time>2018-03-24T16:05:44Z</time>
      </trkpt>
      <trkpt lat="47.52918" lon="-1.26363">
        <ele>51</ele>
        <time>2018-03-24T16:05:47Z</time>
      </trkpt>
      <trkpt lat="47.52921" lon="-1.26358">
        <ele>51</ele>
        <time>2018-03-24T16:05:49Z</time>
      </trkpt>
      <trkpt lat="47.52922" lon="-1.26358">
        <ele>51</ele>
        <time>2018-03-24T16:05:50Z</time>
      </trkpt>
      <trkpt lat="47.52924" lon="-1.26357">
        <ele>50</ele>
        <time>2018-03-24T16:05:52Z</time>
      </trkpt>
      <trkpt lat="47.52926" lon="-1.26357">
        <ele>50</ele>
        <time>2018-03-24T16:05:53Z</time>
      </trkpt>
      <trkpt lat="47.52938" lon="-1.26362">
        <ele>50</ele>
        <time>2018-03-24T16:05:59Z</time>
      </trkpt>
      <trkpt lat="47.52954" lon="-1.26368">
        <ele>50</ele>
        <time>2018-03-24T16:06:06Z</time>
      </trkpt>
      <trkpt lat="47.52968" lon="-1.26375">
        <ele>49</ele>
        <time>2018-03-24T16:06:12Z</time>
      </trkpt>
      <trkpt lat="47.52986" lon="-1.26383">
        <ele>49</ele>
        <time>2018-03-24T16:06:20Z</time>
      </trkpt>
      <trkpt lat="47.52988" lon="-1.26385">
        <ele>49</ele>
        <time>2018-03-24T16:06:21Z</time>
      </trkpt>
      <trkpt lat="47.53" lon="-1.26391">
        <ele>49</ele>
        <time>2018-03-24T16:06:26Z</time>
      </trkpt>
      <trkpt lat="47.53014" lon="-1.26397">
        <ele>49</ele>
        <time>2018-03-24T16:07:44Z</time>
      </trkpt>
      <trkpt lat="47.53017" lon="-1.26399">
        <ele>48</ele>
        <time>2018-03-24T16:07:45Z</time>
      </trkpt>
      <trkpt lat="47.53028" lon="-1.26405">
        <ele>48</ele>
        <time>2018-03-24T16:07:48Z</time>
      </trkpt>
      <trkpt lat="47.53039" lon="-1.26411">
        <ele>48</ele>
        <time>2018-03-24T16:07:51Z</time>
      </trkpt>
      <trkpt lat="47.53054" lon="-1.26419">
        <ele>47</ele>
        <time>2018-03-24T16:07:55Z</time>
      </trkpt>
      <trkpt lat="47.53066" lon="-1.26426">
        <ele>46</ele>
        <time>2018-03-24T16:07:58Z</time>
      </trkpt>
      <trkpt lat="47.53084" lon="-1.26436">
        <ele>46</ele>
        <time>2018-03-24T16:08:03Z</time>
      </trkpt>
      <trkpt lat="47.53092" lon="-1.2644">
        <ele>46</ele>
        <time>2018-03-24T16:08:05Z</time>
      </trkpt>
      <trkpt lat="47.53117" lon="-1.26453">
        <ele>46</ele>
        <time>2018-03-24T16:08:12Z</time>
      </trkpt>
      <trkpt lat="47.53139" lon="-1.26465">
        <ele>46</ele>
        <time>2018-03-24T16:08:19Z</time>
      </trkpt>
      <trkpt lat="47.53154" lon="-1.26473">
        <ele>45</ele>
        <time>2018-03-24T16:08:25Z</time>
      </trkpt>
      <trkpt lat="47.53163" lon="-1.26478">
        <ele>45</ele>
        <time>2018-03-24T16:08:30Z</time>
      </trkpt>
      <trkpt lat="47.53166" lon="-1.26478">
        <ele>45</ele>
        <time>2018-03-24T16:08:32Z</time>
      </trkpt>
      <trkpt lat="47.53167" lon="-1.2648">
        <ele>45</ele>
        <time>2018-03-24T16:08:33Z</time>
      </trkpt>
      <trkpt lat="47.53174" lon="-1.26479">
        <ele>45</ele>
        <time>2018-03-24T16:08:38Z</time>
      </trkpt>
      <trkpt lat="47.53176" lon="-1.26474">
        <ele>45</ele>
        <time>2018-03-24T16:09:34Z</time>
      </trkpt>
      <trkpt lat="47.53178" lon="-1.26468">
        <ele>45</ele>
        <time>2018-03-24T16:09:36Z</time>
      </trkpt>
      <trkpt lat="47.53186" lon="-1.2644">
        <ele>44</ele>
        <time>2018-03-24T16:09:43Z</time>
      </trkpt>
      <trkpt lat="47.53191" lon="-1.26417">
        <ele>44</ele>
        <time>2018-03-24T16:09:48Z</time>
      </trkpt>
      <trkpt lat="47.53195" lon="-1.26406">
        <ele>44</ele>
        <time>2018-03-24T16:09:50Z</time>
      </trkpt>
      <trkpt lat="47.53202" lon="-1.26379">
        <ele>43</ele>
        <time>2018-03-24T16:09:55Z</time>
      </trkpt>
      <trkpt lat="47.53205" lon="-1.2636">
        <ele>43</ele>
        <time>2018-03-24T16:09:59Z</time>
      </trkpt>
      <trkpt lat="47.53207" lon="-1.26351">
        <ele>43</ele>
        <time>2018-03-24T16:10:01Z</time>
      </trkpt>
      <trkpt lat="47.53212" lon="-1.26327">
        <ele>43</ele>
        <time>2018-03-24T16:10:06Z</time>
      </trkpt>
      <trkpt lat="47.53219" lon="-1.26301">
        <ele>43</ele>
        <time>2018-03-24T16:10:13Z</time>
      </trkpt>
      <trkpt lat="47.53225" lon="-1.26283">
        <ele>43</ele>
        <time>2018-03-24T16:10:20Z</time>
      </trkpt>
      <trkpt lat="47.5323" lon="-1.2625">
        <ele>44</ele>
        <time>2018-03-24T16:11:07Z</time>
      </trkpt>
      <trkpt lat="47.53231" lon="-1.26245">
        <ele>44</ele>
        <time>2018-03-24T16:11:09Z</time>
      </trkpt>
      <trkpt lat="47.53233" lon="-1.26241">
        <ele>44</ele>
        <time>2018-03-24T16:11:12Z</time>
      </trkpt>
      <trkpt lat="47.53235" lon="-1.26236">
        <ele>44</ele>
        <time>2018-03-24T16:11:15Z</time>
      </trkpt>
      <trkpt lat="47.53236" lon="-1.26234">
        <ele>44</ele>
        <time>2018-03-24T16:11:16Z</time>
      </trkpt>
      <trkpt lat="47.53239" lon="-1.2621">
        <ele>44</ele>
        <time>2018-03-24T16:11:34Z</time>
      </trkpt>
      <trkpt lat="47.53241" lon="-1.262">
        <ele>44</ele>
        <time>2018-03-24T16:11:37Z</time>
      </trkpt>
      <trkpt lat="47.53248" lon="-1.26177">
        <ele>45</ele>
        <time>2018-03-24T16:11:44Z</time>
      </trkpt>
      <trkpt lat="47.53252" lon="-1.26157">
        <ele>45</ele>
        <time>2018-03-24T16:11:50Z</time>
      </trkpt>
      <trkpt lat="47.53252" lon="-1.26154">
        <ele>45</ele>
        <time>2018-03-24T16:11:51Z</time>
      </trkpt>
      <trkpt lat="47.53253" lon="-1.26147">
        <ele>45</ele>
        <time>2018-03-24T16:11:53Z</time>
      </trkpt>
      <trkpt lat="47.53252" lon="-1.2614">
        <ele>45</ele>
        <time>2018-03-24T16:11:55Z</time>
      </trkpt>
      <trkpt lat="47.53243" lon="-1.2613">
        <ele>45</ele>
        <time>2018-03-24T16:12:00Z</time>
      </trkpt>
      <trkpt lat="47.53236" lon="-1.26124">
        <ele>46</ele>
        <time>2018-03-24T16:12:03Z</time>
      </trkpt>
      <trkpt lat="47.5323" lon="-1.2612">
        <ele>46</ele>
        <time>2018-03-24T16:12:05Z</time>
      </trkpt>
      <trkpt lat="47.53227" lon="-1.26117">
        <ele>46</ele>
        <time>2018-03-24T16:12:06Z</time>
      </trkpt>
      <trkpt lat="47.53211" lon="-1.26109">
        <ele>47</ele>
        <time>2018-03-24T16:12:12Z</time>
      </trkpt>
      <trkpt lat="47.53203" lon="-1.26105">
        <ele>47</ele>
        <time>2018-03-24T16:12:15Z</time>
      </trkpt>
      <trkpt lat="47.53196" lon="-1.26101">
        <ele>47</ele>
        <time>2018-03-24T16:12:18Z</time>
      </trkpt>
      <trkpt lat="47.53181" lon="-1.26091">
        <ele>48</ele>
        <time>2018-03-24T16:12:24Z</time>
      </trkpt>
      <trkpt lat="47.53176" lon="-1.26088">
        <ele>49</ele>
        <time>2018-03-24T16:12:26Z</time>
      </trkpt>
      <trkpt lat="47.5317" lon="-1.26083">
        <ele>49</ele>
        <time>2018-03-24T16:12:29Z</time>
      </trkpt>
      <trkpt lat="47.53161" lon="-1.26078">
        <ele>50</ele>
        <time>2018-03-24T16:12:32Z</time>
      </trkpt>
      <trkpt lat="47.53155" lon="-1.26075">
        <ele>50</ele>
        <time>2018-03-24T16:12:34Z</time>
      </trkpt>
      <trkpt lat="47.53141" lon="-1.26069">
        <ele>52</ele>
        <time>2018-03-24T16:12:39Z</time>
      </trkpt>
      <trkpt lat="47.53128" lon="-1.26062">
        <ele>52</ele>
        <time>2018-03-24T16:12:44Z</time>
      </trkpt>
      <trkpt lat="47.53125" lon="-1.2606">
        <ele>53</ele>
        <time>2018-03-24T16:12:45Z</time>
      </trkpt>
      <trkpt lat="47.53111" lon="-1.26052">
        <ele>54</ele>
        <time>2018-03-24T16:12:50Z</time>
      </trkpt>
      <trkpt lat="47.53106" lon="-1.2605">
        <ele>54</ele>
        <time>2018-03-24T16:12:52Z</time>
      </trkpt>
      <trkpt lat="47.53093" lon="-1.26043">
        <ele>55</ele>
        <time>2018-03-24T16:12:57Z</time>
      </trkpt>
      <trkpt lat="47.53091" lon="-1.26046">
        <ele>55</ele>
        <time>2018-03-24T16:14:42Z</time>
      </trkpt>
      <trkpt lat="47.53088" lon="-1.26052">
        <ele>55</ele>
        <time>2018-03-24T16:14:45Z</time>
      </trkpt>
      <trkpt lat="47.53079" lon="-1.26074">
        <ele>55</ele>
        <time>2018-03-24T16:14:51Z</time>
      </trkpt>
      <trkpt lat="47.53072" lon="-1.26104">
        <ele>55</ele>
        <time>2018-03-24T16:14:57Z</time>
      </trkpt>
      <trkpt lat="47.53072" lon="-1.26113">
        <ele>55</ele>
        <time>2018-03-24T16:14:59Z</time>
      </trkpt>
      <trkpt lat="47.53078" lon="-1.26129">
        <ele>54</ele>
        <time>2018-03-24T16:15:02Z</time>
      </trkpt>
      <trkpt lat="47.53085" lon="-1.26147">
        <ele>53</ele>
        <time>2018-03-24T16:15:06Z</time>
      </trkpt>
      <trkpt lat="47.53086" lon="-1.26152">
        <ele>52</ele>
        <time>2018-03-24T16:15:07Z</time>
      </trkpt>
      <trkpt lat="47.53089" lon="-1.26168">
        <ele>51</ele>
        <time>2018-03-24T16:15:11Z</time>
      </trkpt>
      <trkpt lat="47.5309" lon="-1.26172">
        <ele>51</ele>
        <time>2018-03-24T16:15:12Z</time>
      </trkpt>
      <trkpt lat="47.53089" lon="-1.26175">
        <ele>51</ele>
        <time>2018-03-24T16:15:13Z</time>
      </trkpt>
      <trkpt lat="47.53086" lon="-1.26182">
        <ele>50</ele>
        <time>2018-03-24T16:15:15Z</time>
      </trkpt>
      <trkpt lat="47.53083" lon="-1.26189">
        <ele>50</ele>
        <time>2018-03-24T16:15:17Z</time>
      </trkpt>
      <trkpt lat="47.5308" lon="-1.26195">
        <ele>50</ele>
        <time>2018-03-24T16:15:19Z</time>
      </trkpt>
      <trkpt lat="47.53077" lon="-1.26201">
        <ele>49</ele>
        <time>2018-03-24T16:16:36Z</time>
      </trkpt>
      <trkpt lat="47.53069" lon="-1.26222">
        <ele>48</ele>
        <time>2018-03-24T16:16:42Z</time>
      </trkpt>
      <trkpt lat="47.53068" lon="-1.26229">
        <ele>47</ele>
        <time>2018-03-24T16:16:44Z</time>
      </trkpt>
      <trkpt lat="47.53067" lon="-1.26235">
        <ele>47</ele>
        <time>2018-03-24T16:16:46Z</time>
      </trkpt>
      <trkpt lat="47.53064" lon="-1.26237">
        <ele>47</ele>
        <time>2018-03-24T16:16:47Z</time>
      </trkpt>
      <trkpt lat="47.53061" lon="-1.26239">
        <ele>46</ele>
        <time>2018-03-24T16:16:48Z</time>
      </trkpt>
      <trkpt lat="47.53049" lon="-1.26241">
        <ele>45</ele>
        <time>2018-03-24T16:16:53Z</time>
      </trkpt>
      <trkpt lat="47.53047" lon="-1.2624">
        <ele>45</ele>
        <time>2018-03-24T16:16:54Z</time>
      </trkpt>
      <trkpt lat="47.53039" lon="-1.26237">
        <ele>44</ele>
        <time>2018-03-24T16:16:58Z</time>
      </trkpt>
      <trkpt lat="47.53035" lon="-1.26233">
        <ele>43</ele>
        <time>2018-03-24T16:17:01Z</time>
      </trkpt>
      <trkpt lat="47.53033" lon="-1.26224">
        <ele>43</ele>
        <time>2018-03-24T16:17:06Z</time>
      </trkpt>
      <trkpt lat="47.53029" lon="-1.26212">
        <ele>44</ele>
        <time>2018-03-24T16:17:13Z</time>
      </trkpt>
      <trkpt lat="47.53023" lon="-1.26205">
        <ele>45</ele>
        <time>2018-03-24T16:17:18Z</time>
      </trkpt>
      <trkpt lat="47.53018" lon="-1.262">
        <ele>45</ele>
        <time>2018-03-24T16:17:21Z</time>
      </trkpt>
      <trkpt lat="47.5301" lon="-1.26192">
        <ele>45</ele>
        <time>2018-03-24T16:17:27Z</time>
      </trkpt>
      <trkpt lat="47.53002" lon="-1.26189">
        <ele>45</ele>
        <time>2018-03-24T16:17:32Z</time>
      </trkpt>
      <trkpt lat="47.52998" lon="-1.2619">
        <ele>45</ele>
        <time>2018-03-24T16:17:34Z</time>
      </trkpt>
      <trkpt lat="47.52989" lon="-1.26191">
        <ele>43</ele>
        <time>2018-03-24T16:17:40Z</time>
      </trkpt>
      <trkpt lat="47.52987" lon="-1.2619">
        <ele>43</ele>
        <time>2018-03-24T16:17:41Z</time>
      </trkpt>
      <trkpt lat="47.52984" lon="-1.26187">
        <ele>42</ele>
        <time>2018-03-24T16:17:44Z</time>
      </trkpt>
      <trkpt lat="47.52967" lon="-1.26179">
        <ele>42</ele>
        <time>2018-03-24T16:18:03Z</time>
      </trkpt>
      <trkpt lat="47.52957" lon="-1.26175">
        <ele>41</ele>
        <time>2018-03-24T16:18:08Z</time>
      </trkpt>
      <trkpt lat="47.52956" lon="-1.26174">
        <ele>41</ele>
        <time>2018-03-24T16:18:09Z</time>
      </trkpt>
      <trkpt lat="47.52941" lon="-1.26161">
        <ele>41</ele>
        <time>2018-03-24T16:18:22Z</time>
      </trkpt>
      <trkpt lat="47.52934" lon="-1.26159">
        <ele>40</ele>
        <time>2018-03-24T16:18:25Z</time>
      </trkpt>
      <trkpt lat="47.52932" lon="-1.26157">
        <ele>40</ele>
        <time>2018-03-24T16:18:27Z</time>
      </trkpt>
      <trkpt lat="47.5293" lon="-1.26157">
        <ele>40</ele>
        <time>2018-03-24T16:18:28Z</time>
      </trkpt>
      <trkpt lat="47.52917" lon="-1.26149">
        <ele>40</ele>
        <time>2018-03-24T16:18:38Z</time>
      </trkpt>
      <trkpt lat="47.52907" lon="-1.26144">
        <ele>40</ele>
        <time>2018-03-24T16:18:44Z</time>
      </trkpt>
      <trkpt lat="47.52895" lon="-1.26135">
        <ele>40</ele>
        <time>2018-03-24T16:18:51Z</time>
      </trkpt>
      <trkpt lat="47.52893" lon="-1.26135">
        <ele>40</ele>
        <time>2018-03-24T16:18:52Z</time>
      </trkpt>
      <trkpt lat="47.52887" lon="-1.26134">
        <ele>40</ele>
        <time>2018-03-24T16:18:56Z</time>
      </trkpt>
      <trkpt lat="47.52878" lon="-1.26133">
        <ele>40</ele>
        <time>2018-03-24T16:19:01Z</time>
      </trkpt>
      <trkpt lat="47.5287" lon="-1.26133">
        <ele>41</ele>
        <time>2018-03-24T16:19:06Z</time>
      </trkpt>
      <trkpt lat="47.52868" lon="-1.26132">
        <ele>41</ele>
        <time>2018-03-24T16:19:08Z</time>
      </trkpt>
      <trkpt lat="47.52863" lon="-1.26131">
        <ele>41</ele>
        <time>2018-03-24T16:19:11Z</time>
      </trkpt>
      <trkpt lat="47.52862" lon="-1.26129">
        <ele>41</ele>
        <time>2018-03-24T16:19:12Z</time>
      </trkpt>
      <trkpt lat="47.52856" lon="-1.26128">
        <ele>41</ele>
        <time>2018-03-24T16:19:15Z</time>
      </trkpt>
      <trkpt lat="47.52843" lon="-1.26127">
        <ele>42</ele>
        <time>2018-03-24T16:19:21Z</time>
      </trkpt>
      <trkpt lat="47.52835" lon="-1.26131">
        <ele>41</ele>
        <time>2018-03-24T16:19:26Z</time>
      </trkpt>
      <trkpt lat="47.52827" lon="-1.2613">
        <ele>41</ele>
        <time>2018-03-24T16:19:32Z</time>
      </trkpt>
      <trkpt lat="47.52825" lon="-1.26131">
        <ele>41</ele>
        <time>2018-03-24T16:19:33Z</time>
      </trkpt>
      <trkpt lat="47.52824" lon="-1.26132">
        <ele>41</ele>
        <time>2018-03-24T16:19:34Z</time>
      </trkpt>
      <trkpt lat="47.52816" lon="-1.26135">
        <ele>41</ele>
        <time>2018-03-24T16:19:37Z</time>
      </trkpt>
      <trkpt lat="47.52805" lon="-1.26141">
        <ele>40</ele>
        <time>2018-03-24T16:19:42Z</time>
      </trkpt>
      <trkpt lat="47.528" lon="-1.26147">
        <ele>40</ele>
        <time>2018-03-24T16:19:46Z</time>
      </trkpt>
      <trkpt lat="47.52798" lon="-1.26146">
        <ele>40</ele>
        <time>2018-03-24T16:21:11Z</time>
      </trkpt>
      <trkpt lat="47.52791" lon="-1.26149">
        <ele>39</ele>
        <time>2018-03-24T16:21:15Z</time>
      </trkpt>
      <trkpt lat="47.52774" lon="-1.26153">
        <ele>37</ele>
        <time>2018-03-24T16:21:24Z</time>
      </trkpt>
      <trkpt lat="47.52766" lon="-1.26151">
        <ele>36</ele>
        <time>2018-03-24T16:21:27Z</time>
      </trkpt>
      <trkpt lat="47.52759" lon="-1.2615">
        <ele>36</ele>
        <time>2018-03-24T16:22:03Z</time>
      </trkpt>
      <trkpt lat="47.52757" lon="-1.26149">
        <ele>36</ele>
        <time>2018-03-24T16:22:04Z</time>
      </trkpt>
      <trkpt lat="47.52753" lon="-1.26148">
        <ele>36</ele>
        <time>2018-03-24T16:22:06Z</time>
      </trkpt>
      <trkpt lat="47.52745" lon="-1.26143">
        <ele>35</ele>
        <time>2018-03-24T16:22:10Z</time>
      </trkpt>
      <trkpt lat="47.52743" lon="-1.26142">
        <ele>35</ele>
        <time>2018-03-24T16:22:11Z</time>
      </trkpt>
      <trkpt lat="47.52725" lon="-1.26136">
        <ele>35</ele>
        <time>2018-03-24T16:22:17Z</time>
      </trkpt>
      <trkpt lat="47.52711" lon="-1.26131">
        <ele>35</ele>
        <time>2018-03-24T16:22:21Z</time>
      </trkpt>
      <trkpt lat="47.52709" lon="-1.26129">
        <ele>34</ele>
        <time>2018-03-24T16:22:22Z</time>
      </trkpt>
      <trkpt lat="47.527" lon="-1.26121">
        <ele>34</ele>
        <time>2018-03-24T16:22:26Z</time>
      </trkpt>
      <trkpt lat="47.52697" lon="-1.26117">
        <ele>34</ele>
        <time>2018-03-24T16:22:28Z</time>
      </trkpt>
      <trkpt lat="47.52689" lon="-1.26108">
        <ele>35</ele>
        <time>2018-03-24T16:22:35Z</time>
      </trkpt>
      <trkpt lat="47.52683" lon="-1.26101">
        <ele>35</ele>
        <time>2018-03-24T16:22:57Z</time>
      </trkpt>
      <trkpt lat="47.52677" lon="-1.26091">
        <ele>36</ele>
        <time>2018-03-24T16:23:00Z</time>
      </trkpt>
      <trkpt lat="47.52663" lon="-1.26075">
        <ele>35</ele>
        <time>2018-03-24T16:23:06Z</time>
      </trkpt>
      <trkpt lat="47.52644" lon="-1.26041">
        <ele>35</ele>
        <time>2018-03-24T16:23:34Z</time>
      </trkpt>
      <trkpt lat="47.52643" lon="-1.26039">
        <ele>35</ele>
        <time>2018-03-24T16:23:35Z</time>
      </trkpt>
      <trkpt lat="47.52641" lon="-1.26031">
        <ele>35</ele>
        <time>2018-03-24T16:23:38Z</time>
      </trkpt>
      <trkpt lat="47.5264" lon="-1.26021">
        <ele>35</ele>
        <time>2018-03-24T16:23:42Z</time>
      </trkpt>
      <trkpt lat="47.52641" lon="-1.26018">
        <ele>35</ele>
        <time>2018-03-24T16:23:43Z</time>
      </trkpt>
      <trkpt lat="47.52639" lon="-1.26008">
        <ele>35</ele>
        <time>2018-03-24T16:23:47Z</time>
      </trkpt>
      <trkpt lat="47.52634" lon="-1.25986">
        <ele>35</ele>
        <time>2018-03-24T16:23:56Z</time>
      </trkpt>
      <trkpt lat="47.52635" lon="-1.25983">
        <ele>35</ele>
        <time>2018-03-24T16:23:57Z</time>
      </trkpt>
      <trkpt lat="47.52634" lon="-1.2597">
        <ele>35</ele>
        <time>2018-03-24T16:24:02Z</time>
      </trkpt>
      <trkpt lat="47.52635" lon="-1.25966">
        <ele>35</ele>
        <time>2018-03-24T16:24:04Z</time>
      </trkpt>
      <trkpt lat="47.52631" lon="-1.25951">
        <ele>34</ele>
        <time>2018-03-24T16:24:21Z</time>
      </trkpt>
      <trkpt lat="47.52631" lon="-1.25946">
        <ele>34</ele>
        <time>2018-03-24T16:24:23Z</time>
      </trkpt>
      <trkpt lat="47.5263" lon="-1.25944">
        <ele>34</ele>
        <time>2018-03-24T16:24:24Z</time>
      </trkpt>
      <trkpt lat="47.52629" lon="-1.25941">
        <ele>34</ele>
        <time>2018-03-24T16:24:25Z</time>
      </trkpt>
      <trkpt lat="47.52621" lon="-1.25934">
        <ele>34</ele>
        <time>2018-03-24T16:24:29Z</time>
      </trkpt>
      <trkpt lat="47.52608" lon="-1.25934">
        <ele>34</ele>
        <time>2018-03-24T16:24:34Z</time>
      </trkpt>
      <trkpt lat="47.52606" lon="-1.25933">
        <ele>34</ele>
        <time>2018-03-24T16:24:35Z</time>
      </trkpt>
      <trkpt lat="47.52596" lon="-1.25931">
        <ele>34</ele>
        <time>2018-03-24T16:24:39Z</time>
      </trkpt>
      <trkpt lat="47.52587" lon="-1.25929">
        <ele>34</ele>
        <time>2018-03-24T16:24:42Z</time>
      </trkpt>
      <trkpt lat="47.52581" lon="-1.25927">
        <ele>33</ele>
        <time>2018-03-24T16:24:44Z</time>
      </trkpt>
      <trkpt lat="47.52564" lon="-1.25924">
        <ele>33</ele>
        <time>2018-03-24T16:24:50Z</time>
      </trkpt>
      <trkpt lat="47.52546" lon="-1.25922">
        <ele>33</ele>
        <time>2018-03-24T16:24:56Z</time>
      </trkpt>
      <trkpt lat="47.52533" lon="-1.25924">
        <ele>33</ele>
        <time>2018-03-24T16:25:01Z</time>
      </trkpt>
      <trkpt lat="47.52521" lon="-1.25926">
        <ele>33</ele>
        <time>2018-03-24T16:25:06Z</time>
      </trkpt>
      <trkpt lat="47.52513" lon="-1.2593">
        <ele>33</ele>
        <time>2018-03-24T16:25:10Z</time>
      </trkpt>
      <trkpt lat="47.52511" lon="-1.25932">
        <ele>33</ele>
        <time>2018-03-24T16:25:11Z</time>
      </trkpt>
      <trkpt lat="47.52503" lon="-1.25937">
        <ele>33</ele>
        <time>2018-03-24T16:25:15Z</time>
      </trkpt>
      <trkpt lat="47.52501" lon="-1.25939">
        <ele>33</ele>
        <time>2018-03-24T16:25:16Z</time>
      </trkpt>
      <trkpt lat="47.52494" lon="-1.2595">
        <ele>32</ele>
        <time>2018-03-24T16:26:02Z</time>
      </trkpt>
      <trkpt lat="47.52493" lon="-1.25953">
        <ele>32</ele>
        <time>2018-03-24T16:26:03Z</time>
      </trkpt>
      <trkpt lat="47.52487" lon="-1.25956">
        <ele>32</ele>
        <time>2018-03-24T16:26:07Z</time>
      </trkpt>
      <trkpt lat="47.52485" lon="-1.25956">
        <ele>31</ele>
        <time>2018-03-24T16:26:08Z</time>
      </trkpt>
      <trkpt lat="47.52481" lon="-1.25951">
        <ele>31</ele>
        <time>2018-03-24T16:26:11Z</time>
      </trkpt>
      <trkpt lat="47.5248" lon="-1.25947">
        <ele>31</ele>
        <time>2018-03-24T16:26:13Z</time>
      </trkpt>
      <trkpt lat="47.52479" lon="-1.25941">
        <ele>32</ele>
        <time>2018-03-24T16:26:16Z</time>
      </trkpt>
      <trkpt lat="47.52476" lon="-1.25936">
        <ele>32</ele>
        <time>2018-03-24T16:26:18Z</time>
      </trkpt>
      <trkpt lat="47.52471" lon="-1.25926">
        <ele>33</ele>
        <time>2018-03-24T16:26:22Z</time>
      </trkpt>
      <trkpt lat="47.52469" lon="-1.25922">
        <ele>33</ele>
        <time>2018-03-24T16:26:24Z</time>
      </trkpt>
      <trkpt lat="47.52465" lon="-1.25912">
        <ele>33</ele>
        <time>2018-03-24T16:30:39Z</time>
      </trkpt>
      <trkpt lat="47.52463" lon="-1.2591">
        <ele>33</ele>
        <time>2018-03-24T16:30:40Z</time>
      </trkpt>
      <trkpt lat="47.5246" lon="-1.25892">
        <ele>33</ele>
        <time>2018-03-24T16:30:44Z</time>
      </trkpt>
      <trkpt lat="47.5246" lon="-1.25872">
        <ele>33</ele>
        <time>2018-03-24T16:30:49Z</time>
      </trkpt>
      <trkpt lat="47.5247" lon="-1.25854">
        <ele>33</ele>
        <time>2018-03-24T16:30:54Z</time>
      </trkpt>
      <trkpt lat="47.52486" lon="-1.25832">
        <ele>33</ele>
        <time>2018-03-24T16:31:00Z</time>
      </trkpt>
      <trkpt lat="47.52494" lon="-1.25804">
        <ele>33</ele>
        <time>2018-03-24T16:31:06Z</time>
      </trkpt>
      <trkpt lat="47.52504" lon="-1.25791">
        <ele>33</ele>
        <time>2018-03-24T16:31:10Z</time>
      </trkpt>
      <trkpt lat="47.52507" lon="-1.25789">
        <ele>33</ele>
        <time>2018-03-24T16:31:11Z</time>
      </trkpt>
      <trkpt lat="47.52512" lon="-1.25776">
        <ele>33</ele>
        <time>2018-03-24T16:31:14Z</time>
      </trkpt>
      <trkpt lat="47.52514" lon="-1.25773">
        <ele>33</ele>
        <time>2018-03-24T16:31:15Z</time>
      </trkpt>
      <trkpt lat="47.52522" lon="-1.25757">
        <ele>33</ele>
        <time>2018-03-24T16:31:50Z</time>
      </trkpt>
      <trkpt lat="47.52526" lon="-1.25755">
        <ele>33</ele>
        <time>2018-03-24T16:31:52Z</time>
      </trkpt>
      <trkpt lat="47.5253" lon="-1.25754">
        <ele>33</ele>
        <time>2018-03-24T16:31:54Z</time>
      </trkpt>
      <trkpt lat="47.52532" lon="-1.25755">
        <ele>33</ele>
        <time>2018-03-24T16:31:55Z</time>
      </trkpt>
      <trkpt lat="47.52544" lon="-1.25754">
        <ele>34</ele>
        <time>2018-03-24T16:32:00Z</time>
      </trkpt>
      <trkpt lat="47.52558" lon="-1.25757">
        <ele>35</ele>
        <time>2018-03-24T16:32:05Z</time>
      </trkpt>
      <trkpt lat="47.5256" lon="-1.25758">
        <ele>35</ele>
        <time>2018-03-24T16:32:06Z</time>
      </trkpt>
      <trkpt lat="47.52574" lon="-1.25763">
        <ele>36</ele>
        <time>2018-03-24T16:32:10Z</time>
      </trkpt>
      <trkpt lat="47.52581" lon="-1.25766">
        <ele>36</ele>
        <time>2018-03-24T16:32:12Z</time>
      </trkpt>
      <trkpt lat="47.52592" lon="-1.25772">
        <ele>37</ele>
        <time>2018-03-24T16:32:17Z</time>
      </trkpt>
      <trkpt lat="47.52595" lon="-1.25773">
        <ele>37</ele>
        <time>2018-03-24T16:32:18Z</time>
      </trkpt>
      <trkpt lat="47.52609" lon="-1.2578">
        <ele>38</ele>
        <time>2018-03-24T16:32:25Z</time>
      </trkpt>
      <trkpt lat="47.52611" lon="-1.25781">
        <ele>38</ele>
        <time>2018-03-24T16:32:26Z</time>
      </trkpt>
      <trkpt lat="47.52627" lon="-1.25788">
        <ele>39</ele>
        <time>2018-03-24T16:32:32Z</time>
      </trkpt>
      <trkpt lat="47.52632" lon="-1.25791">
        <ele>39</ele>
        <time>2018-03-24T16:32:34Z</time>
      </trkpt>
      <trkpt lat="47.52648" lon="-1.25797">
        <ele>39</ele>
        <time>2018-03-24T16:32:39Z</time>
      </trkpt>
      <trkpt lat="47.52675" lon="-1.25812">
        <ele>39</ele>
        <time>2018-03-24T16:32:46Z</time>
      </trkpt>
      <trkpt lat="47.52692" lon="-1.25824">
        <ele>39</ele>
        <time>2018-03-24T16:32:52Z</time>
      </trkpt>
      <trkpt lat="47.52709" lon="-1.25835">
        <ele>38</ele>
        <time>2018-03-24T16:32:58Z</time>
      </trkpt>
      <trkpt lat="47.52721" lon="-1.25841">
        <ele>39</ele>
        <time>2018-03-24T16:33:04Z</time>
      </trkpt>
      <trkpt lat="47.52727" lon="-1.25844">
        <ele>40</ele>
        <time>2018-03-24T16:33:07Z</time>
      </trkpt>
      <trkpt lat="47.52733" lon="-1.25846">
        <ele>41</ele>
        <time>2018-03-24T16:33:10Z</time>
      </trkpt>
      <trkpt lat="47.52735" lon="-1.25847">
        <ele>41</ele>
        <time>2018-03-24T16:33:11Z</time>
      </trkpt>
      <trkpt lat="47.52742" lon="-1.25851">
        <ele>43</ele>
        <time>2018-03-24T16:33:15Z</time>
      </trkpt>
      <trkpt lat="47.52754" lon="-1.25859">
        <ele>44</ele>
        <time>2018-03-24T16:33:21Z</time>
      </trkpt>
      <trkpt lat="47.52765" lon="-1.25863">
        <ele>45</ele>
        <time>2018-03-24T16:33:26Z</time>
      </trkpt>
      <trkpt lat="47.5277" lon="-1.25866">
        <ele>45</ele>
        <time>2018-03-24T16:33:28Z</time>
      </trkpt>
      <trkpt lat="47.52782" lon="-1.25872">
        <ele>46</ele>
        <time>2018-03-24T16:33:33Z</time>
      </trkpt>
      <trkpt lat="47.52789" lon="-1.25875">
        <ele>46</ele>
        <time>2018-03-24T16:33:36Z</time>
      </trkpt>
      <trkpt lat="47.528" lon="-1.2588">
        <ele>47</ele>
        <time>2018-03-24T16:33:41Z</time>
      </trkpt>
      <trkpt lat="47.52804" lon="-1.25881">
        <ele>47</ele>
        <time>2018-03-24T16:33:43Z</time>
      </trkpt>
      <trkpt lat="47.52813" lon="-1.25886">
        <ele>48</ele>
        <time>2018-03-24T16:33:47Z</time>
      </trkpt>
      <trkpt lat="47.52815" lon="-1.25888">
        <ele>48</ele>
        <time>2018-03-24T16:33:48Z</time>
      </trkpt>
      <trkpt lat="47.52833" lon="-1.25897">
        <ele>49</ele>
        <time>2018-03-24T16:33:56Z</time>
      </trkpt>
      <trkpt lat="47.52848" lon="-1.25905">
        <ele>50</ele>
        <time>2018-03-24T16:34:03Z</time>
      </trkpt>
      <trkpt lat="47.52866" lon="-1.25917">
        <ele>50</ele>
        <time>2018-03-24T16:34:11Z</time>
      </trkpt>
      <trkpt lat="47.52879" lon="-1.25924">
        <ele>50</ele>
        <time>2018-03-24T16:37:21Z</time>
      </trkpt>
      <trkpt lat="47.52882" lon="-1.25926">
        <ele>50</ele>
        <time>2018-03-24T16:37:22Z</time>
      </trkpt>
      <trkpt lat="47.52894" lon="-1.25933">
        <ele>50</ele>
        <time>2018-03-24T16:37:27Z</time>
      </trkpt>
      <trkpt lat="47.52897" lon="-1.25934">
        <ele>50</ele>
        <time>2018-03-24T16:37:28Z</time>
      </trkpt>
      <trkpt lat="47.52916" lon="-1.25945">
        <ele>50</ele>
        <time>2018-03-24T16:37:34Z</time>
      </trkpt>
      <trkpt lat="47.52932" lon="-1.25955">
        <ele>51</ele>
        <time>2018-03-24T16:37:40Z</time>
      </trkpt>
      <trkpt lat="47.52956" lon="-1.25968">
        <ele>51</ele>
        <time>2018-03-24T16:37:49Z</time>
      </trkpt>
      <trkpt lat="47.52962" lon="-1.25972">
        <ele>51</ele>
        <time>2018-03-24T16:37:51Z</time>
      </trkpt>
      <trkpt lat="47.52972" lon="-1.25977">
        <ele>52</ele>
        <time>2018-03-24T16:37:54Z</time>
      </trkpt>
      <trkpt lat="47.52986" lon="-1.25985">
        <ele>52</ele>
        <time>2018-03-24T16:38:00Z</time>
      </trkpt>
      <trkpt lat="47.5299" lon="-1.25986">
        <ele>52</ele>
        <time>2018-03-24T16:38:01Z</time>
      </trkpt>
      <trkpt lat="47.52993" lon="-1.25987">
        <ele>52</ele>
        <time>2018-03-24T16:38:02Z</time>
      </trkpt>
      <trkpt lat="47.52998" lon="-1.25983">
        <ele>53</ele>
        <time>2018-03-24T16:38:04Z</time>
      </trkpt>
      <trkpt lat="47.53009" lon="-1.2596">
        <ele>53</ele>
        <time>2018-03-24T16:38:10Z</time>
      </trkpt>
      <trkpt lat="47.5301" lon="-1.25955">
        <ele>53</ele>
        <time>2018-03-24T16:38:11Z</time>
      </trkpt>
      <trkpt lat="47.53011" lon="-1.25952">
        <ele>54</ele>
        <time>2018-03-24T16:38:12Z</time>
      </trkpt>
      <trkpt lat="47.53015" lon="-1.25946">
        <ele>54</ele>
        <time>2018-03-24T16:38:14Z</time>
      </trkpt>
      <trkpt lat="47.53021" lon="-1.2593">
        <ele>55</ele>
        <time>2018-03-24T16:38:18Z</time>
      </trkpt>
      <trkpt lat="47.53025" lon="-1.2592">
        <ele>55</ele>
        <time>2018-03-24T16:38:21Z</time>
      </trkpt>
      <trkpt lat="47.53032" lon="-1.259">
        <ele>55</ele>
        <time>2018-03-24T16:38:27Z</time>
      </trkpt>
      <trkpt lat="47.53041" lon="-1.25871">
        <ele>55</ele>
        <time>2018-03-24T16:38:34Z</time>
      </trkpt>
      <trkpt lat="47.53046" lon="-1.25844">
        <ele>55</ele>
        <time>2018-03-24T16:38:40Z</time>
      </trkpt>
      <trkpt lat="47.53053" lon="-1.2582">
        <ele>55</ele>
        <time>2018-03-24T16:38:46Z</time>
      </trkpt>
      <trkpt lat="47.53062" lon="-1.25793">
        <ele>55</ele>
        <time>2018-03-24T16:38:52Z</time>
      </trkpt>
      <trkpt lat="47.53069" lon="-1.25771">
        <ele>55</ele>
        <time>2018-03-24T16:38:57Z</time>
      </trkpt>
      <trkpt lat="47.53074" lon="-1.25744">
        <ele>55</ele>
        <time>2018-03-24T16:39:03Z</time>
      </trkpt>
      <trkpt lat="47.53082" lon="-1.25715">
        <ele>55</ele>
        <time>2018-03-24T16:39:09Z</time>
      </trkpt>
      <trkpt lat="47.53086" lon="-1.25688">
        <ele>55</ele>
        <time>2018-03-24T16:39:15Z</time>
      </trkpt>
      <trkpt lat="47.53092" lon="-1.25661">
        <ele>54</ele>
        <time>2018-03-24T16:39:21Z</time>
      </trkpt>
      <trkpt lat="47.53094" lon="-1.2565">
        <ele>54</ele>
        <time>2018-03-24T16:39:24Z</time>
      </trkpt>
      <trkpt lat="47.53093" lon="-1.25643">
        <ele>54</ele>
        <time>2018-03-24T16:39:26Z</time>
      </trkpt>
      <trkpt lat="47.53087" lon="-1.25636">
        <ele>54</ele>
        <time>2018-03-24T16:39:29Z</time>
      </trkpt>
      <trkpt lat="47.53082" lon="-1.25632">
        <ele>54</ele>
        <time>2018-03-24T16:39:31Z</time>
      </trkpt>
      <trkpt lat="47.53064" lon="-1.25622">
        <ele>54</ele>
        <time>2018-03-24T16:39:38Z</time>
      </trkpt>
      <trkpt lat="47.53048" lon="-1.2562">
        <ele>54</ele>
        <time>2018-03-24T16:39:44Z</time>
      </trkpt>
      <trkpt lat="47.53028" lon="-1.2562">
        <ele>54</ele>
        <time>2018-03-24T16:39:51Z</time>
      </trkpt>
      <trkpt lat="47.53011" lon="-1.25625">
        <ele>54</ele>
        <time>2018-03-24T16:39:56Z</time>
      </trkpt>
      <trkpt lat="47.53008" lon="-1.25626">
        <ele>54</ele>
        <time>2018-03-24T16:39:57Z</time>
      </trkpt>
      <trkpt lat="47.52981" lon="-1.2564">
        <ele>53</ele>
        <time>2018-03-24T16:40:05Z</time>
      </trkpt>
      <trkpt lat="47.52957" lon="-1.2566">
        <ele>52</ele>
        <time>2018-03-24T16:40:12Z</time>
      </trkpt>
      <trkpt lat="47.52947" lon="-1.25669">
        <ele>51</ele>
        <time>2018-03-24T16:40:15Z</time>
      </trkpt>
      <trkpt lat="47.52938" lon="-1.25679">
        <ele>51</ele>
        <time>2018-03-24T16:40:18Z</time>
      </trkpt>
      <trkpt lat="47.52929" lon="-1.25692">
        <ele>51</ele>
        <time>2018-03-24T16:40:23Z</time>
      </trkpt>
      <trkpt lat="47.52923" lon="-1.25701">
        <ele>50</ele>
        <time>2018-03-24T16:41:28Z</time>
      </trkpt>
      <trkpt lat="47.52923" lon="-1.25704">
        <ele>50</ele>
        <time>2018-03-24T16:41:29Z</time>
      </trkpt>
      <trkpt lat="47.52916" lon="-1.25715">
        <ele>50</ele>
        <time>2018-03-24T16:41:33Z</time>
      </trkpt>
      <trkpt lat="47.52913" lon="-1.25718">
        <ele>50</ele>
        <time>2018-03-24T16:41:35Z</time>
      </trkpt>
      <trkpt lat="47.52909" lon="-1.25725">
        <ele>50</ele>
        <time>2018-03-24T16:41:38Z</time>
      </trkpt>
      <trkpt lat="47.52897" lon="-1.25744">
        <ele>49</ele>
        <time>2018-03-24T16:41:45Z</time>
      </trkpt>
      <trkpt lat="47.52893" lon="-1.2575">
        <ele>49</ele>
        <time>2018-03-24T16:41:47Z</time>
      </trkpt>
      <trkpt lat="47.52885" lon="-1.25767">
        <ele>48</ele>
        <time>2018-03-24T16:41:53Z</time>
      </trkpt>
      <trkpt lat="47.52881" lon="-1.2577">
        <ele>48</ele>
        <time>2018-03-24T16:41:56Z</time>
      </trkpt>
      <trkpt lat="47.52878" lon="-1.25769">
        <ele>48</ele>
        <time>2018-03-24T16:41:58Z</time>
      </trkpt>
      <trkpt lat="47.52868" lon="-1.25762">
        <ele>48</ele>
        <time>2018-03-24T16:42:10Z</time>
      </trkpt>
      <trkpt lat="47.52867" lon="-1.2576">
        <ele>48</ele>
        <time>2018-03-24T16:42:11Z</time>
      </trkpt>
      <trkpt lat="47.52861" lon="-1.25754">
        <ele>47</ele>
        <time>2018-03-24T16:42:17Z</time>
      </trkpt>
      <trkpt lat="47.5286" lon="-1.25752">
        <ele>47</ele>
        <time>2018-03-24T16:42:18Z</time>
      </trkpt>
      <trkpt lat="47.52855" lon="-1.25741">
        <ele>47</ele>
        <time>2018-03-24T16:42:24Z</time>
      </trkpt>
      <trkpt lat="47.52854" lon="-1.25738">
        <ele>47</ele>
        <time>2018-03-24T16:42:25Z</time>
      </trkpt>
      <trkpt lat="47.52852" lon="-1.25736">
        <ele>47</ele>
        <time>2018-03-24T16:42:27Z</time>
      </trkpt>
      <trkpt lat="47.5285" lon="-1.25735">
        <ele>46</ele>
        <time>2018-03-24T16:42:29Z</time>
      </trkpt>
      <trkpt lat="47.52848" lon="-1.25734">
        <ele>46</ele>
        <time>2018-03-24T16:42:31Z</time>
      </trkpt>
      <trkpt lat="47.52844" lon="-1.25735">
        <ele>46</ele>
        <time>2018-03-24T16:42:34Z</time>
      </trkpt>
      <trkpt lat="47.52842" lon="-1.25734">
        <ele>46</ele>
        <time>2018-03-24T16:42:35Z</time>
      </trkpt>
      <trkpt lat="47.52834" lon="-1.25734">
        <ele>46</ele>
        <time>2018-03-24T16:42:38Z</time>
      </trkpt>
      <trkpt lat="47.52829" lon="-1.25734">
        <ele>46</ele>
        <time>2018-03-24T16:42:40Z</time>
      </trkpt>
      <trkpt lat="47.52827" lon="-1.25734">
        <ele>45</ele>
        <time>2018-03-24T16:42:41Z</time>
      </trkpt>
      <trkpt lat="47.52816" lon="-1.25731">
        <ele>45</ele>
        <time>2018-03-24T16:42:47Z</time>
      </trkpt>
      <trkpt lat="47.52815" lon="-1.25731">
        <ele>45</ele>
        <time>2018-03-24T16:42:48Z</time>
      </trkpt>
      <trkpt lat="47.52805" lon="-1.25729">
        <ele>44</ele>
        <time>2018-03-24T16:42:53Z</time>
      </trkpt>
      <trkpt lat="47.52794" lon="-1.25725">
        <ele>44</ele>
        <time>2018-03-24T16:42:58Z</time>
      </trkpt>
      <trkpt lat="47.52787" lon="-1.2572">
        <ele>45</ele>
        <time>2018-03-24T16:43:02Z</time>
      </trkpt>
      <trkpt lat="47.52786" lon="-1.25718">
        <ele>45</ele>
        <time>2018-03-24T16:43:03Z</time>
      </trkpt>
      <trkpt lat="47.52783" lon="-1.25714">
        <ele>45</ele>
        <time>2018-03-24T16:43:05Z</time>
      </trkpt>
      <trkpt lat="47.52779" lon="-1.2571">
        <ele>45</ele>
        <time>2018-03-24T16:43:09Z</time>
      </trkpt>
      <trkpt lat="47.52777" lon="-1.25711">
        <ele>46</ele>
        <time>2018-03-24T16:43:11Z</time>
      </trkpt>
      <trkpt lat="47.52775" lon="-1.25718">
        <ele>45</ele>
        <time>2018-03-24T16:43:21Z</time>
      </trkpt>
      <trkpt lat="47.52772" lon="-1.25727">
        <ele>45</ele>
        <time>2018-03-24T16:43:24Z</time>
      </trkpt>
      <trkpt lat="47.52772" lon="-1.25731">
        <ele>45</ele>
        <time>2018-03-24T16:43:25Z</time>
      </trkpt>
      <trkpt lat="47.52768" lon="-1.25746">
        <ele>45</ele>
        <time>2018-03-24T16:43:28Z</time>
      </trkpt>
      <trkpt lat="47.52765" lon="-1.25756">
        <ele>44</ele>
        <time>2018-03-24T16:43:30Z</time>
      </trkpt>
      <trkpt lat="47.52764" lon="-1.25763">
        <ele>43</ele>
        <time>2018-03-24T16:43:31Z</time>
      </trkpt>
      <trkpt lat="47.5276" lon="-1.25782">
        <ele>42</ele>
        <time>2018-03-24T16:43:34Z</time>
      </trkpt>
      <trkpt lat="47.52759" lon="-1.25787">
        <ele>42</ele>
        <time>2018-03-24T16:43:35Z</time>
      </trkpt>
      <trkpt lat="47.52752" lon="-1.25821">
        <ele>41</ele>
        <time>2018-03-24T16:43:42Z</time>
      </trkpt>
      <trkpt lat="47.52744" lon="-1.25839">
        <ele>42</ele>
        <time>2018-03-24T16:43:48Z</time>
      </trkpt>
      <trkpt lat="47.52741" lon="-1.25843">
        <ele>42</ele>
        <time>2018-03-24T16:43:50Z</time>
      </trkpt>
      <trkpt lat="47.52733" lon="-1.25842">
        <ele>42</ele>
        <time>2018-03-24T16:43:53Z</time>
      </trkpt>
      <trkpt lat="47.52721" lon="-1.25838">
        <ele>41</ele>
        <time>2018-03-24T16:43:56Z</time>
      </trkpt>
      <trkpt lat="47.52716" lon="-1.25836">
        <ele>41</ele>
        <time>2018-03-24T16:43:57Z</time>
      </trkpt>
      <trkpt lat="47.52705" lon="-1.2583">
        <ele>40</ele>
        <time>2018-03-24T16:43:59Z</time>
      </trkpt>
      <trkpt lat="47.52696" lon="-1.25825">
        <ele>39</ele>
        <time>2018-03-24T16:44:01Z</time>
      </trkpt>
      <trkpt lat="47.52692" lon="-1.25822">
        <ele>38</ele>
        <time>2018-03-24T16:44:02Z</time>
      </trkpt>
      <trkpt lat="47.52677" lon="-1.25814">
        <ele>38</ele>
        <time>2018-03-24T16:44:07Z</time>
      </trkpt>
      <trkpt lat="47.52649" lon="-1.25802">
        <ele>38</ele>
        <time>2018-03-24T16:44:15Z</time>
      </trkpt>
      <trkpt lat="47.52627" lon="-1.25792">
        <ele>38</ele>
        <time>2018-03-24T16:44:21Z</time>
      </trkpt>
      <trkpt lat="47.52605" lon="-1.25781">
        <ele>38</ele>
        <time>2018-03-24T16:44:27Z</time>
      </trkpt>
      <trkpt lat="47.52601" lon="-1.25779">
        <ele>37</ele>
        <time>2018-03-24T16:44:28Z</time>
      </trkpt>
      <trkpt lat="47.52584" lon="-1.2577">
        <ele>37</ele>
        <time>2018-03-24T16:44:32Z</time>
      </trkpt>
      <trkpt lat="47.52572" lon="-1.25763">
        <ele>36</ele>
        <time>2018-03-24T16:44:35Z</time>
      </trkpt>
      <trkpt lat="47.52568" lon="-1.25761">
        <ele>35</ele>
        <time>2018-03-24T16:44:36Z</time>
      </trkpt>
      <trkpt lat="47.52552" lon="-1.25753">
        <ele>34</ele>
        <time>2018-03-24T16:44:41Z</time>
      </trkpt>
      <trkpt lat="47.52544" lon="-1.25746">
        <ele>33</ele>
        <time>2018-03-24T16:44:45Z</time>
      </trkpt>
      <trkpt lat="47.52543" lon="-1.25743">
        <ele>33</ele>
        <time>2018-03-24T16:44:46Z</time>
      </trkpt>
      <trkpt lat="47.52543" lon="-1.25731">
        <ele>32</ele>
        <time>2018-03-24T16:44:49Z</time>
      </trkpt>
      <trkpt lat="47.52543" lon="-1.25728">
        <ele>32</ele>
        <time>2018-03-24T16:44:50Z</time>
      </trkpt>
      <trkpt lat="47.52546" lon="-1.25714">
        <ele>32</ele>
        <time>2018-03-24T16:44:54Z</time>
      </trkpt>
      <trkpt lat="47.52549" lon="-1.25699">
        <ele>32</ele>
        <time>2018-03-24T16:44:59Z</time>
      </trkpt>
      <trkpt lat="47.52595" lon="-1.25588">
        <ele>34</ele>
        <time>2018-03-24T16:48:47Z</time>
      </trkpt>
      <trkpt lat="47.52598" lon="-1.25581">
        <ele>34</ele>
        <time>2018-03-24T16:48:50Z</time>
      </trkpt>
      <trkpt lat="47.52611" lon="-1.25561">
        <ele>35</ele>
        <time>2018-03-24T16:48:58Z</time>
      </trkpt>
      <trkpt lat="47.52617" lon="-1.25551">
        <ele>35</ele>
        <time>2018-03-24T16:49:02Z</time>
      </trkpt>
      <trkpt lat="47.52621" lon="-1.25545">
        <ele>35</ele>
        <time>2018-03-24T16:49:04Z</time>
      </trkpt>
      <trkpt lat="47.52631" lon="-1.25528">
        <ele>36</ele>
        <time>2018-03-24T16:49:10Z</time>
      </trkpt>
      <trkpt lat="47.52642" lon="-1.25511">
        <ele>36</ele>
        <time>2018-03-24T16:49:16Z</time>
      </trkpt>
      <trkpt lat="47.52654" lon="-1.25492">
        <ele>36</ele>
        <time>2018-03-24T16:49:22Z</time>
      </trkpt>
      <trkpt lat="47.5267" lon="-1.25479">
        <ele>36</ele>
        <time>2018-03-24T16:50:51Z</time>
      </trkpt>
      <trkpt lat="47.52672" lon="-1.25478">
        <ele>36</ele>
        <time>2018-03-24T16:50:52Z</time>
      </trkpt>
      <trkpt lat="47.52685" lon="-1.25474">
        <ele>37</ele>
        <time>2018-03-24T16:51:00Z</time>
      </trkpt>
      <trkpt lat="47.52687" lon="-1.25473">
        <ele>37</ele>
        <time>2018-03-24T16:51:01Z</time>
      </trkpt>
      <trkpt lat="47.52695" lon="-1.25444">
        <ele>36</ele>
        <time>2018-03-24T16:52:03Z</time>
      </trkpt>
      <trkpt lat="47.52699" lon="-1.25435">
        <ele>35</ele>
        <time>2018-03-24T16:52:07Z</time>
      </trkpt>
      <trkpt lat="47.52701" lon="-1.25432">
        <ele>34</ele>
        <time>2018-03-24T16:52:09Z</time>
      </trkpt>
      <trkpt lat="47.52703" lon="-1.2543">
        <ele>34</ele>
        <time>2018-03-24T16:52:10Z</time>
      </trkpt>
      <trkpt lat="47.52708" lon="-1.25423">
        <ele>33</ele>
        <time>2018-03-24T16:52:14Z</time>
      </trkpt>
      <trkpt lat="47.52695" lon="-1.25365">
        <ele>37</ele>
        <time>2018-03-24T16:53:29Z</time>
      </trkpt>
      <trkpt lat="47.52688" lon="-1.25316">
        <ele>38</ele>
        <time>2018-03-24T16:54:53Z</time>
      </trkpt>
      <trkpt lat="47.52691" lon="-1.25303">
        <ele>39</ele>
        <time>2018-03-24T16:54:59Z</time>
      </trkpt>
      <trkpt lat="47.52692" lon="-1.25301">
        <ele>40</ele>
        <time>2018-03-24T16:55:00Z</time>
      </trkpt>
      <trkpt lat="47.52695" lon="-1.25286">
        <ele>40</ele>
        <time>2018-03-24T16:55:06Z</time>
      </trkpt>
      <trkpt lat="47.52695" lon="-1.25283">
        <ele>41</ele>
        <time>2018-03-24T16:55:07Z</time>
      </trkpt>
      <trkpt lat="47.52698" lon="-1.25266">
        <ele>41</ele>
        <time>2018-03-24T16:55:13Z</time>
      </trkpt>
      <trkpt lat="47.52698" lon="-1.25244">
        <ele>42</ele>
        <time>2018-03-24T16:55:18Z</time>
      </trkpt>
      <trkpt lat="47.52698" lon="-1.25239">
        <ele>42</ele>
        <time>2018-03-24T16:55:19Z</time>
      </trkpt>
      <trkpt lat="47.52697" lon="-1.25215">
        <ele>42</ele>
        <time>2018-03-24T16:55:24Z</time>
      </trkpt>
      <trkpt lat="47.52697" lon="-1.2519">
        <ele>42</ele>
        <time>2018-03-24T16:55:29Z</time>
      </trkpt>
      <trkpt lat="47.52698" lon="-1.25164">
        <ele>42</ele>
        <time>2018-03-24T16:55:35Z</time>
      </trkpt>
      <trkpt lat="47.52696" lon="-1.25146">
        <ele>42</ele>
        <time>2018-03-24T16:55:39Z</time>
      </trkpt>
      <trkpt lat="47.52696" lon="-1.25139">
        <ele>42</ele>
        <time>2018-03-24T16:55:41Z</time>
      </trkpt>
      <trkpt lat="47.52692" lon="-1.25108">
        <ele>42</ele>
        <time>2018-03-24T16:55:47Z</time>
      </trkpt>
      <trkpt lat="47.52685" lon="-1.25064">
        <ele>41</ele>
        <time>2018-03-24T16:55:55Z</time>
      </trkpt>
      <trkpt lat="47.52682" lon="-1.25028">
        <ele>41</ele>
        <time>2018-03-24T16:56:01Z</time>
      </trkpt>
      <trkpt lat="47.5268" lon="-1.24987">
        <ele>41</ele>
        <time>2018-03-24T16:56:08Z</time>
      </trkpt>
      <trkpt lat="47.52676" lon="-1.24964">
        <ele>41</ele>
        <time>2018-03-24T16:56:12Z</time>
      </trkpt>
      <trkpt lat="47.52674" lon="-1.24954">
        <ele>40</ele>
        <time>2018-03-24T16:56:14Z</time>
      </trkpt>
      <trkpt lat="47.52665" lon="-1.24919">
        <ele>39</ele>
        <time>2018-03-24T16:56:20Z</time>
      </trkpt>
      <trkpt lat="47.52658" lon="-1.24897">
        <ele>39</ele>
        <time>2018-03-24T16:56:23Z</time>
      </trkpt>
      <trkpt lat="47.52651" lon="-1.2488">
        <ele>39</ele>
        <time>2018-03-24T16:56:25Z</time>
      </trkpt>
      <trkpt lat="47.52649" lon="-1.24871">
        <ele>38</ele>
        <time>2018-03-24T16:56:26Z</time>
      </trkpt>
      <trkpt lat="47.52643" lon="-1.24843">
        <ele>37</ele>
        <time>2018-03-24T16:56:30Z</time>
      </trkpt>
      <trkpt lat="47.52639" lon="-1.24834">
        <ele>36</ele>
        <time>2018-03-24T16:56:32Z</time>
      </trkpt>
      <trkpt lat="47.52632" lon="-1.2483">
        <ele>36</ele>
        <time>2018-03-24T16:56:34Z</time>
      </trkpt>
      <trkpt lat="47.5262" lon="-1.2483">
        <ele>35</ele>
        <time>2018-03-24T16:56:37Z</time>
      </trkpt>
      <trkpt lat="47.52616" lon="-1.24831">
        <ele>35</ele>
        <time>2018-03-24T16:56:38Z</time>
      </trkpt>
      <trkpt lat="47.52613" lon="-1.24832">
        <ele>34</ele>
        <time>2018-03-24T16:56:39Z</time>
      </trkpt>
      <trkpt lat="47.52604" lon="-1.24837">
        <ele>33</ele>
        <time>2018-03-24T16:56:42Z</time>
      </trkpt>
      <trkpt lat="47.52597" lon="-1.24843">
        <ele>32</ele>
        <time>2018-03-24T16:56:44Z</time>
      </trkpt>
      <trkpt lat="47.52595" lon="-1.24846">
        <ele>32</ele>
        <time>2018-03-24T16:56:45Z</time>
      </trkpt>
      <trkpt lat="47.5259" lon="-1.24858">
        <ele>30</ele>
        <time>2018-03-24T16:56:48Z</time>
      </trkpt>
      <trkpt lat="47.52586" lon="-1.24864">
        <ele>29</ele>
        <time>2018-03-24T16:56:50Z</time>
      </trkpt>
      <trkpt lat="47.52585" lon="-1.24864">
        <ele>29</ele>
        <time>2018-03-24T16:56:51Z</time>
      </trkpt>
      <trkpt lat="47.52572" lon="-1.24879">
        <ele>26</ele>
        <time>2018-03-24T16:58:19Z</time>
      </trkpt>
      <trkpt lat="47.52566" lon="-1.24882">
        <ele>25</ele>
        <time>2018-03-24T16:58:21Z</time>
      </trkpt>
      <trkpt lat="47.52559" lon="-1.24886">
        <ele>25</ele>
        <time>2018-03-24T16:58:26Z</time>
      </trkpt>
      <trkpt lat="47.52554" lon="-1.24891">
        <ele>24</ele>
        <time>2018-03-24T16:58:32Z</time>
      </trkpt>
      <trkpt lat="47.52548" lon="-1.24894">
        <ele>24</ele>
        <time>2018-03-24T16:58:35Z</time>
      </trkpt>
      <trkpt lat="47.52533" lon="-1.24904">
        <ele>24</ele>
        <time>2018-03-24T16:58:40Z</time>
      </trkpt>
      <trkpt lat="47.52531" lon="-1.24907">
        <ele>23</ele>
        <time>2018-03-24T16:58:41Z</time>
      </trkpt>
      <trkpt lat="47.52523" lon="-1.24914">
        <ele>23</ele>
        <time>2018-03-24T16:58:45Z</time>
      </trkpt>
      <trkpt lat="47.52509" lon="-1.24923">
        <ele>23</ele>
        <time>2018-03-24T16:58:53Z</time>
      </trkpt>
      <trkpt lat="47.52497" lon="-1.2493">
        <ele>23</ele>
        <time>2018-03-24T16:59:01Z</time>
      </trkpt>
      <trkpt lat="47.52489" lon="-1.24935">
        <ele>23</ele>
        <time>2018-03-24T16:59:22Z</time>
      </trkpt>
      <trkpt lat="47.52481" lon="-1.2494">
        <ele>23</ele>
        <time>2018-03-24T16:59:29Z</time>
      </trkpt>
      <trkpt lat="47.5248" lon="-1.24943">
        <ele>23</ele>
        <time>2018-03-24T16:59:30Z</time>
      </trkpt>
      <trkpt lat="47.52481" lon="-1.2495">
        <ele>23</ele>
        <time>2018-03-24T16:59:34Z</time>
      </trkpt>
      <trkpt lat="47.52482" lon="-1.24952">
        <ele>23</ele>
        <time>2018-03-24T16:59:35Z</time>
      </trkpt>
      <trkpt lat="47.5249" lon="-1.24964">
        <ele>23</ele>
        <time>2018-03-24T16:59:40Z</time>
      </trkpt>
      <trkpt lat="47.525" lon="-1.24985">
        <ele>23</ele>
        <time>2018-03-24T16:59:46Z</time>
      </trkpt>
      <trkpt lat="47.52506" lon="-1.25002">
        <ele>23</ele>
        <time>2018-03-24T16:59:51Z</time>
      </trkpt>
      <trkpt lat="47.52513" lon="-1.25029">
        <ele>23</ele>
        <time>2018-03-24T16:59:57Z</time>
      </trkpt>
      <trkpt lat="47.52522" lon="-1.25057">
        <ele>23</ele>
        <time>2018-03-24T17:00:03Z</time>
      </trkpt>
      <trkpt lat="47.52529" lon="-1.25076">
        <ele>23</ele>
        <time>2018-03-24T17:00:09Z</time>
      </trkpt>
      <trkpt lat="47.52532" lon="-1.25097">
        <ele>24</ele>
        <time>2018-03-24T17:00:16Z</time>
      </trkpt>
      <trkpt lat="47.52535" lon="-1.25114">
        <ele>24</ele>
        <time>2018-03-24T17:00:21Z</time>
      </trkpt>
      <trkpt lat="47.52535" lon="-1.2512">
        <ele>25</ele>
        <time>2018-03-24T17:00:23Z</time>
      </trkpt>
      <trkpt lat="47.52537" lon="-1.25129">
        <ele>25</ele>
        <time>2018-03-24T17:00:26Z</time>
      </trkpt>
      <trkpt lat="47.52533" lon="-1.2515">
        <ele>26</ele>
        <time>2018-03-24T17:00:34Z</time>
      </trkpt>
      <trkpt lat="47.52527" lon="-1.25166">
        <ele>26</ele>
        <time>2018-03-24T17:00:41Z</time>
      </trkpt>
      <trkpt lat="47.52522" lon="-1.25171">
        <ele>27</ele>
        <time>2018-03-24T17:00:46Z</time>
      </trkpt>
      <trkpt lat="47.52521" lon="-1.25171">
        <ele>27</ele>
        <time>2018-03-24T17:00:47Z</time>
      </trkpt>
      <trkpt lat="47.5252" lon="-1.2517">
        <ele>27</ele>
        <time>2018-03-24T17:00:48Z</time>
      </trkpt>
      <trkpt lat="47.5252" lon="-1.25165">
        <ele>27</ele>
        <time>2018-03-24T17:00:51Z</time>
      </trkpt>
      <trkpt lat="47.5252" lon="-1.25162">
        <ele>28</ele>
        <time>2018-03-24T17:00:52Z</time>
      </trkpt>
      <trkpt lat="47.52519" lon="-1.25158">
        <ele>28</ele>
        <time>2018-03-24T17:00:54Z</time>
      </trkpt>
      <trkpt lat="47.52513" lon="-1.25134">
        <ele>29</ele>
        <time>2018-03-24T17:01:06Z</time>
      </trkpt>
      <trkpt lat="47.52512" lon="-1.25131">
        <ele>29</ele>
        <time>2018-03-24T17:01:07Z</time>
      </trkpt>
      <trkpt lat="47.52508" lon="-1.25103">
        <ele>30</ele>
        <time>2018-03-24T17:01:18Z</time>
      </trkpt>
      <trkpt lat="47.52508" lon="-1.25097">
        <ele>30</ele>
        <time>2018-03-24T17:01:20Z</time>
      </trkpt>
      <trkpt lat="47.52507" lon="-1.25092">
        <ele>30</ele>
        <time>2018-03-24T17:01:22Z</time>
      </trkpt>
      <trkpt lat="47.52506" lon="-1.25083">
        <ele>30</ele>
        <time>2018-03-24T17:01:25Z</time>
      </trkpt>
      <trkpt lat="47.52503" lon="-1.25077">
        <ele>30</ele>
        <time>2018-03-24T17:01:27Z</time>
      </trkpt>
      <trkpt lat="47.52502" lon="-1.25071">
        <ele>31</ele>
        <time>2018-03-24T17:01:29Z</time>
      </trkpt>
      <trkpt lat="47.525" lon="-1.25058">
        <ele>31</ele>
        <time>2018-03-24T17:01:33Z</time>
      </trkpt>
      <trkpt lat="47.52495" lon="-1.25051">
        <ele>31</ele>
        <time>2018-03-24T17:01:38Z</time>
      </trkpt>
      <trkpt lat="47.5249" lon="-1.25046">
        <ele>31</ele>
        <time>2018-03-24T17:01:42Z</time>
      </trkpt>
      <trkpt lat="47.52488" lon="-1.25045">
        <ele>31</ele>
        <time>2018-03-24T17:01:43Z</time>
      </trkpt>
      <trkpt lat="47.5248" lon="-1.25038">
        <ele>32</ele>
        <time>2018-03-24T17:01:49Z</time>
      </trkpt>
      <trkpt lat="47.52472" lon="-1.25031">
        <ele>33</ele>
        <time>2018-03-24T17:01:55Z</time>
      </trkpt>
      <trkpt lat="47.52468" lon="-1.25023">
        <ele>33</ele>
        <time>2018-03-24T17:01:59Z</time>
      </trkpt>
      <trkpt lat="47.52467" lon="-1.25019">
        <ele>33</ele>
        <time>2018-03-24T17:02:01Z</time>
      </trkpt>
      <trkpt lat="47.52467" lon="-1.25013">
        <ele>34</ele>
        <time>2018-03-24T17:02:03Z</time>
      </trkpt>
      <trkpt lat="47.52465" lon="-1.25002">
        <ele>33</ele>
        <time>2018-03-24T17:02:06Z</time>
      </trkpt>
      <trkpt lat="47.52458" lon="-1.24989">
        <ele>33</ele>
        <time>2018-03-24T17:02:11Z</time>
      </trkpt>
      <trkpt lat="47.52451" lon="-1.2498">
        <ele>33</ele>
        <time>2018-03-24T17:02:15Z</time>
      </trkpt>
      <trkpt lat="47.5245" lon="-1.24977">
        <ele>33</ele>
        <time>2018-03-24T17:02:16Z</time>
      </trkpt>
      <trkpt lat="47.52448" lon="-1.24963">
        <ele>33</ele>
        <time>2018-03-24T17:02:20Z</time>
      </trkpt>
      <trkpt lat="47.5245" lon="-1.24956">
        <ele>33</ele>
        <time>2018-03-24T17:02:22Z</time>
      </trkpt>
      <trkpt lat="47.52448" lon="-1.24942">
        <ele>32</ele>
        <time>2018-03-24T17:02:25Z</time>
      </trkpt>
      <trkpt lat="47.52447" lon="-1.24935">
        <ele>32</ele>
        <time>2018-03-24T17:02:27Z</time>
      </trkpt>
      <trkpt lat="47.52448" lon="-1.24929">
        <ele>31</ele>
        <time>2018-03-24T17:04:31Z</time>
      </trkpt>
      <trkpt lat="47.52451" lon="-1.24931">
        <ele>30</ele>
        <time>2018-03-24T17:04:33Z</time>
      </trkpt>
      <trkpt lat="47.52459" lon="-1.24939">
        <ele>30</ele>
        <time>2018-03-24T17:04:37Z</time>
      </trkpt>
      <trkpt lat="47.5246" lon="-1.2494">
        <ele>30</ele>
        <time>2018-03-24T17:04:38Z</time>
      </trkpt>
      <trkpt lat="47.52469" lon="-1.24941">
        <ele>28</ele>
        <time>2018-03-24T17:04:41Z</time>
      </trkpt>
      <trkpt lat="47.52473" lon="-1.24941">
        <ele>28</ele>
        <time>2018-03-24T17:04:42Z</time>
      </trkpt>
      <trkpt lat="47.52476" lon="-1.2494">
        <ele>26</ele>
        <time>2018-03-24T17:04:43Z</time>
      </trkpt>
      <trkpt lat="47.52483" lon="-1.24937">
        <ele>25</ele>
        <time>2018-03-24T17:04:45Z</time>
      </trkpt>
      <trkpt lat="47.52488" lon="-1.24933">
        <ele>23</ele>
        <time>2018-03-24T17:04:47Z</time>
      </trkpt>
      <trkpt lat="47.525" lon="-1.24926">
        <ele>22</ele>
        <time>2018-03-24T17:04:52Z</time>
      </trkpt>
      <trkpt lat="47.52513" lon="-1.2492">
        <ele>22</ele>
        <time>2018-03-24T17:04:57Z</time>
      </trkpt>
      <trkpt lat="47.52523" lon="-1.24916">
        <ele>22</ele>
        <time>2018-03-24T17:05:03Z</time>
      </trkpt>
      <trkpt lat="47.52534" lon="-1.24906">
        <ele>22</ele>
        <time>2018-03-24T17:05:09Z</time>
      </trkpt>
      <trkpt lat="47.52548" lon="-1.24895">
        <ele>23</ele>
        <time>2018-03-24T17:05:16Z</time>
      </trkpt>
      <trkpt lat="47.52556" lon="-1.24888">
        <ele>24</ele>
        <time>2018-03-24T17:05:23Z</time>
      </trkpt>
      <trkpt lat="47.52569" lon="-1.24882">
        <ele>24</ele>
        <time>2018-03-24T17:05:29Z</time>
      </trkpt>
      <trkpt lat="47.52583" lon="-1.24866">
        <ele>26</ele>
        <time>2018-03-24T17:07:06Z</time>
      </trkpt>
      <trkpt lat="47.52585" lon="-1.24861">
        <ele>26</ele>
        <time>2018-03-24T17:07:08Z</time>
      </trkpt>
      <trkpt lat="47.52588" lon="-1.24856">
        <ele>26</ele>
        <time>2018-03-24T17:07:10Z</time>
      </trkpt>
      <trkpt lat="47.52593" lon="-1.24847">
        <ele>27</ele>
        <time>2018-03-24T17:07:14Z</time>
      </trkpt>
      <trkpt lat="47.52596" lon="-1.24842">
        <ele>28</ele>
        <time>2018-03-24T17:07:16Z</time>
      </trkpt>
      <trkpt lat="47.52598" lon="-1.24838">
        <ele>29</ele>
        <time>2018-03-24T17:07:18Z</time>
      </trkpt>
      <trkpt lat="47.52606" lon="-1.24833">
        <ele>30</ele>
        <time>2018-03-24T17:07:22Z</time>
      </trkpt>
      <trkpt lat="47.52607" lon="-1.24831">
        <ele>30</ele>
        <time>2018-03-24T17:07:23Z</time>
      </trkpt>
      <trkpt lat="47.52612" lon="-1.2483">
        <ele>31</ele>
        <time>2018-03-24T17:07:26Z</time>
      </trkpt>
      <trkpt lat="47.52618" lon="-1.24827">
        <ele>32</ele>
        <time>2018-03-24T17:07:30Z</time>
      </trkpt>
      <trkpt lat="47.52627" lon="-1.24825">
        <ele>33</ele>
        <time>2018-03-24T17:07:35Z</time>
      </trkpt>
      <trkpt lat="47.5263" lon="-1.24825">
        <ele>33</ele>
        <time>2018-03-24T17:07:38Z</time>
      </trkpt>
      <trkpt lat="47.52638" lon="-1.24822">
        <ele>34</ele>
        <time>2018-03-24T17:07:47Z</time>
      </trkpt>
      <trkpt lat="47.52639" lon="-1.24821">
        <ele>34</ele>
        <time>2018-03-24T17:07:48Z</time>
      </trkpt>
      <trkpt lat="47.52645" lon="-1.2482">
        <ele>35</ele>
        <time>2018-03-24T17:07:52Z</time>
      </trkpt>
      <trkpt lat="47.52646" lon="-1.24813">
        <ele>35</ele>
        <time>2018-03-24T17:07:56Z</time>
      </trkpt>
      <trkpt lat="47.52646" lon="-1.24805">
        <ele>35</ele>
        <time>2018-03-24T17:07:59Z</time>
      </trkpt>
      <trkpt lat="47.52646" lon="-1.24791">
        <ele>35</ele>
        <time>2018-03-24T17:08:04Z</time>
      </trkpt>
      <trkpt lat="47.52646" lon="-1.24785">
        <ele>34</ele>
        <time>2018-03-24T17:08:06Z</time>
      </trkpt>
      <trkpt lat="47.52647" lon="-1.24776">
        <ele>34</ele>
        <time>2018-03-24T17:08:09Z</time>
      </trkpt>
      <trkpt lat="47.52649" lon="-1.24765">
        <ele>34</ele>
        <time>2018-03-24T17:08:12Z</time>
      </trkpt>
      <trkpt lat="47.5265" lon="-1.24753">
        <ele>33</ele>
        <time>2018-03-24T17:08:15Z</time>
      </trkpt>
      <trkpt lat="47.52652" lon="-1.24744">
        <ele>33</ele>
        <time>2018-03-24T17:08:17Z</time>
      </trkpt>
      <trkpt lat="47.52654" lon="-1.24731">
        <ele>33</ele>
        <time>2018-03-24T17:08:20Z</time>
      </trkpt>
      <trkpt lat="47.52654" lon="-1.24722">
        <ele>32</ele>
        <time>2018-03-24T17:08:22Z</time>
      </trkpt>
      <trkpt lat="47.52654" lon="-1.24711">
        <ele>31</ele>
        <time>2018-03-24T17:08:25Z</time>
      </trkpt>
      <trkpt lat="47.52654" lon="-1.24698">
        <ele>30</ele>
        <time>2018-03-24T17:08:28Z</time>
      </trkpt>
      <trkpt lat="47.52653" lon="-1.2469">
        <ele>29</ele>
        <time>2018-03-24T17:08:30Z</time>
      </trkpt>
      <trkpt lat="47.52653" lon="-1.24686">
        <ele>28</ele>
        <time>2018-03-24T17:08:31Z</time>
      </trkpt>
      <trkpt lat="47.5265" lon="-1.24678">
        <ele>27</ele>
        <time>2018-03-24T17:08:33Z</time>
      </trkpt>
      <trkpt lat="47.52651" lon="-1.24668">
        <ele>26</ele>
        <time>2018-03-24T17:08:40Z</time>
      </trkpt>
      <trkpt lat="47.52662" lon="-1.24641">
        <ele>27</ele>
        <time>2018-03-24T17:10:34Z</time>
      </trkpt>
      <trkpt lat="47.52662" lon="-1.24639">
        <ele>27</ele>
        <time>2018-03-24T17:10:35Z</time>
      </trkpt>
      <trkpt lat="47.52662" lon="-1.24564">
        <ele>35</ele>
        <time>2018-03-24T17:11:54Z</time>
      </trkpt>
      <trkpt lat="47.5266" lon="-1.2456">
        <ele>35</ele>
        <time>2018-03-24T17:11:56Z</time>
      </trkpt>
      <trkpt lat="47.52661" lon="-1.24542">
        <ele>36</ele>
        <time>2018-03-24T17:12:01Z</time>
      </trkpt>
      <trkpt lat="47.52663" lon="-1.24528">
        <ele>36</ele>
        <time>2018-03-24T17:12:06Z</time>
      </trkpt>
      <trkpt lat="47.52663" lon="-1.24526">
        <ele>36</ele>
        <time>2018-03-24T17:12:07Z</time>
      </trkpt>
      <trkpt lat="47.52667" lon="-1.2451">
        <ele>37</ele>
        <time>2018-03-24T17:12:12Z</time>
      </trkpt>
      <trkpt lat="47.5267" lon="-1.24494">
        <ele>37</ele>
        <time>2018-03-24T17:12:17Z</time>
      </trkpt>
      <trkpt lat="47.52671" lon="-1.24488">
        <ele>38</ele>
        <time>2018-03-24T17:12:19Z</time>
      </trkpt>
      <trkpt lat="47.52674" lon="-1.24478">
        <ele>39</ele>
        <time>2018-03-24T17:12:24Z</time>
      </trkpt>
      <trkpt lat="47.52676" lon="-1.24472">
        <ele>39</ele>
        <time>2018-03-24T17:12:27Z</time>
      </trkpt>
      <trkpt lat="47.52681" lon="-1.24453">
        <ele>40</ele>
        <time>2018-03-24T17:12:33Z</time>
      </trkpt>
      <trkpt lat="47.52685" lon="-1.2443">
        <ele>41</ele>
        <time>2018-03-24T17:12:38Z</time>
      </trkpt>
      <trkpt lat="47.52686" lon="-1.24426">
        <ele>41</ele>
        <time>2018-03-24T17:12:39Z</time>
      </trkpt>
      <trkpt lat="47.5269" lon="-1.24405">
        <ele>42</ele>
        <time>2018-03-24T17:12:45Z</time>
      </trkpt>
      <trkpt lat="47.52691" lon="-1.24401">
        <ele>42</ele>
        <time>2018-03-24T17:12:46Z</time>
      </trkpt>
      <trkpt lat="47.52694" lon="-1.24378">
        <ele>42</ele>
        <time>2018-03-24T17:12:51Z</time>
      </trkpt>
      <trkpt lat="47.52697" lon="-1.24355">
        <ele>42</ele>
        <time>2018-03-24T17:12:55Z</time>
      </trkpt>
      <trkpt lat="47.52699" lon="-1.24342">
        <ele>42</ele>
        <time>2018-03-24T17:12:57Z</time>
      </trkpt>
      <trkpt lat="47.52705" lon="-1.24283">
        <ele>42</ele>
        <time>2018-03-24T17:13:06Z</time>
      </trkpt>
      <trkpt lat="47.52714" lon="-1.2422">
        <ele>41</ele>
        <time>2018-03-24T17:13:14Z</time>
      </trkpt>
      <trkpt lat="47.52726" lon="-1.24173">
        <ele>40</ele>
        <time>2018-03-24T17:13:21Z</time>
      </trkpt>
      <trkpt lat="47.5273" lon="-1.24154">
        <ele>41</ele>
        <time>2018-03-24T17:13:24Z</time>
      </trkpt>
      <trkpt lat="47.52732" lon="-1.24142">
        <ele>41</ele>
        <time>2018-03-24T17:13:26Z</time>
      </trkpt>
      <trkpt lat="47.52733" lon="-1.24136">
        <ele>42</ele>
        <time>2018-03-24T17:13:27Z</time>
      </trkpt>
      <trkpt lat="47.52736" lon="-1.2413">
        <ele>42</ele>
        <time>2018-03-24T17:13:28Z</time>
      </trkpt>
      <trkpt lat="47.52739" lon="-1.24112">
        <ele>43</ele>
        <time>2018-03-24T17:13:31Z</time>
      </trkpt>
      <trkpt lat="47.5274" lon="-1.24106">
        <ele>43</ele>
        <time>2018-03-24T17:13:32Z</time>
      </trkpt>
      <trkpt lat="47.52742" lon="-1.24093">
        <ele>43</ele>
        <time>2018-03-24T17:13:34Z</time>
      </trkpt>
      <trkpt lat="47.52744" lon="-1.24081">
        <ele>44</ele>
        <time>2018-03-24T17:13:36Z</time>
      </trkpt>
      <trkpt lat="47.52745" lon="-1.24068">
        <ele>44</ele>
        <time>2018-03-24T17:13:38Z</time>
      </trkpt>
      <trkpt lat="47.52747" lon="-1.24043">
        <ele>44</ele>
        <time>2018-03-24T17:13:42Z</time>
      </trkpt>
      <trkpt lat="47.52746" lon="-1.24031">
        <ele>44</ele>
        <time>2018-03-24T17:13:44Z</time>
      </trkpt>
      <trkpt lat="47.52744" lon="-1.24002">
        <ele>44</ele>
        <time>2018-03-24T17:13:49Z</time>
      </trkpt>
      <trkpt lat="47.5275" lon="-1.23973">
        <ele>43</ele>
        <time>2018-03-24T17:13:54Z</time>
      </trkpt>
      <trkpt lat="47.52758" lon="-1.23938">
        <ele>43</ele>
        <time>2018-03-24T17:14:01Z</time>
      </trkpt>
      <trkpt lat="47.52767" lon="-1.23901">
        <ele>43</ele>
        <time>2018-03-24T17:14:08Z</time>
      </trkpt>
      <trkpt lat="47.52774" lon="-1.23861">
        <ele>44</ele>
        <time>2018-03-24T17:14:16Z</time>
      </trkpt>
      <trkpt lat="47.52783" lon="-1.23859">
        <ele>44</ele>
        <time>2018-03-24T17:14:19Z</time>
      </trkpt>
      <trkpt lat="47.5281" lon="-1.23851">
        <ele>44</ele>
        <time>2018-03-24T17:14:26Z</time>
      </trkpt>
      <trkpt lat="47.52827" lon="-1.23833">
        <ele>45</ele>
        <time>2018-03-24T17:14:32Z</time>
      </trkpt>
      <trkpt lat="47.5283" lon="-1.23816">
        <ele>45</ele>
        <time>2018-03-24T17:14:35Z</time>
      </trkpt>
      <trkpt lat="47.52831" lon="-1.2381">
        <ele>45</ele>
        <time>2018-03-24T17:14:36Z</time>
      </trkpt>
      <trkpt lat="47.52831" lon="-1.23764">
        <ele>45</ele>
        <time>2018-03-24T17:14:43Z</time>
      </trkpt>
      <trkpt lat="47.52834" lon="-1.23698">
        <ele>44</ele>
        <time>2018-03-24T17:14:53Z</time>
      </trkpt>
      <trkpt lat="47.52834" lon="-1.23691">
        <ele>44</ele>
        <time>2018-03-24T17:14:54Z</time>
      </trkpt>
      <trkpt lat="47.52836" lon="-1.23641">
        <ele>43</ele>
        <time>2018-03-24T17:15:02Z</time>
      </trkpt>
      <trkpt lat="47.52836" lon="-1.23637">
        <ele>43</ele>
        <time>2018-03-24T17:15:03Z</time>
      </trkpt>
      <trkpt lat="47.52833" lon="-1.23625">
        <ele>42</ele>
        <time>2018-03-24T17:15:06Z</time>
      </trkpt>
      <trkpt lat="47.52831" lon="-1.23624">
        <ele>42</ele>
        <time>2018-03-24T17:15:07Z</time>
      </trkpt>
      <trkpt lat="47.52825" lon="-1.23622">
        <ele>42</ele>
        <time>2018-03-24T17:15:09Z</time>
      </trkpt>
      <trkpt lat="47.52819" lon="-1.23623">
        <ele>42</ele>
        <time>2018-03-24T17:15:11Z</time>
      </trkpt>
    </trkseg>
  </trk>
</gpx>